Observation data for Clyde on 06/14/2019      Previous  Date  Next       Current Mesonet Observations  Soil Data  Daily Summary Page  Observations in Plain Language
KCL2 140500Z 15008KT 22/13 A3004 RMK A01 T02190125  RH  055%=      5-min Rain = 0
KCL2 140501Z 15008KT 22/13 A3004 RMK A01 T02190125  RH  055%=      5-min Rain = 0
KCL2 140502Z 15008KT 22/13 A3004 RMK A01 T02200126  RH  055%=      5-min Rain = 0
KCL2 140503Z 16010KT 22/13 A3004 RMK A01 T02190126  RH  055%=      5-min Rain = 0
KCL2 140504Z 15009KT 22/13 A3004 RMK A01 T02190125  RH  055%=      5-min Rain = 0
KCL2 140505Z 15009KT 22/13 A3004 RMK A01 T02190126  RH  055%=      5-min Rain = 0
KCL2 140506Z 15009KT 22/13 A3004 RMK A01 T02190125  RH  055%=      5-min Rain = 0
KCL2 140507Z 15008KT 22/13 A3004 RMK A01 T02200125  RH  055%=      5-min Rain = 0
KCL2 140508Z 15011KT 22/13 A3004 RMK A01 T02200126  RH  055%=      5-min Rain = 0
KCL2 140509Z 15011KT 22/13 A3004 RMK A01 T02200125  RH  055%=      5-min Rain = 0
KCL2 140510Z 15008KT 22/13 A3004 RMK A01 T02200126  RH  055%=      5-min Rain = 0
KCL2 140511Z 15009KT 22/13 A3004 RMK A01 T02200126  RH  055%=      5-min Rain = 0
KCL2 140512Z 15008G13KT 22/13 A3004 RMK A01 T02200126  RH  055%=      5-min Rain = 0
KCL2 140513Z 15008KT 22/13 A3004 RMK A01 T02200126  RH  055%=      5-min Rain = 0
KCL2 140514Z 15009KT 22/13 A3004 RMK A01 T02190127  RH  056%=      5-min Rain = 0
KCL2 140515Z 15008KT 22/13 A3004 RMK A01 T02190127  RH  056%=      5-min Rain = 0
KCL2 140516Z 15009KT 22/13 A3004 RMK A01 T02190126  RH  056%=      5-min Rain = 0
KCL2 140517Z 15009KT 22/13 A3004 RMK A01 T02200126  RH  055%=      5-min Rain = 0
KCL2 140518Z 15008KT 22/13 A3004 RMK A01 T02200127  RH  056%=      5-min Rain = 0
KCL2 140519Z 15010KT 22/13 A3004 RMK A01 T02190127  RH  056%=      5-min Rain = 0
KCL2 140520Z 14008KT 22/13 A3004 RMK A01 T02180127  RH  056%=      5-min Rain = 0
KCL2 140521Z 14010KT 22/13 A3004 RMK A01 T02180128  RH  057%=      5-min Rain = 0
KCL2 140522Z 14009G14KT 22/13 A3004 RMK A01 T02170128  RH  057%=      5-min Rain = 0
KCL2 140523Z 14010KT 22/13 A3004 RMK A01 T02170128  RH  057%=      5-min Rain = 0
KCL2 140524Z 14009KT 22/13 A3004 RMK A01 T02170128  RH  057%=      5-min Rain = 0
KCL2 140525Z 14010KT 22/13 A3004 RMK A01 T02170128  RH  057%=      5-min Rain = 0
KCL2 140526Z 15007KT 22/13 A3004 RMK A01 T02170129  RH  057%=      5-min Rain = 0
KCL2 140527Z 14008KT 22/13 A3004 RMK A01 T02170129  RH  057%=      5-min Rain = 0
KCL2 140528Z 14008KT 22/13 A3005 RMK A01 T02160129  RH  058%=      5-min Rain = 0
KCL2 140529Z 14008KT 22/13 A3005 RMK A01 T02160130  RH  058%=      5-min Rain = 0
KCL2 140530Z 15009KT 22/13 A3005 RMK A01 T02150129  RH  058%=      5-min Rain = 0
KCL2 140531Z 14007KT 22/13 A3005 RMK A01 T02150130  RH  058%=      5-min Rain = 0
KCL2 140532Z 15007KT 22/13 A3005 RMK A01 T02150129  RH  058%=      5-min Rain = 0
KCL2 140533Z 14009KT 22/13 A3005 RMK A01 T02150130  RH  058%=      5-min Rain = 0
KCL2 140534Z 15009KT 21/13 A3005 RMK A01 T02140130  RH  059%=      5-min Rain = 0
KCL2 140535Z 14008KT 21/13 A3005 RMK A01 T02140130  RH  059%=      5-min Rain = 0
KCL2 140536Z 14009KT 21/13 A3005 RMK A01 T02140130  RH  059%=      5-min Rain = 0
KCL2 140537Z 14009KT 21/13 A3005 RMK A01 T02140130  RH  059%=      5-min Rain = 0
KCL2 140538Z 14009KT 21/13 A3005 RMK A01 T02140131  RH  059%=      5-min Rain = 0
KCL2 140539Z 14009KT 21/13 A3005 RMK A01 T02130130  RH  059%=      5-min Rain = 0
KCL2 140540Z 15008KT 21/13 A3005 RMK A01 T02130131  RH  059%=      5-min Rain = 0
KCL2 140541Z 14008KT 21/13 A3005 RMK A01 T02130131  RH  059%=      5-min Rain = 0
KCL2 140542Z 15008KT 21/13 A3005 RMK A01 T02130131  RH  059%=      5-min Rain = 0
KCL2 140543Z 15009KT 21/13 A3005 RMK A01 T02120131  RH  060%=      5-min Rain = 0
KCL2 140544Z 15009KT 21/13 A3005 RMK A01 T02120130  RH  059%=      5-min Rain = 0
KCL2 140545Z 14009KT 21/13 A3005 RMK A01 T02120130  RH  060%=      5-min Rain = 0
KCL2 140546Z 15010KT 21/13 A3005 RMK A01 T02120131  RH  060%=      5-min Rain = 0
KCL2 140547Z 14009KT 21/13 A3005 RMK A01 T02120131  RH  060%=      5-min Rain = 0
KCL2 140548Z 15008KT 21/13 A3005 RMK A01 T02120130  RH  060%=      5-min Rain = 0
KCL2 140549Z 14008KT 21/13 A3005 RMK A01 T02120131  RH  060%=      5-min Rain = 0
KCL2 140550Z 14008KT 21/13 A3005 RMK A01 T02120131  RH  060%=      5-min Rain = 0
KCL2 140551Z 14009KT 21/13 A3005 RMK A01 T02110131  RH  060%=      5-min Rain = 0
KCL2 140552Z 14008KT 21/13 A3005 RMK A01 T02110131  RH  060%=      5-min Rain = 0
KCL2 140553Z 15009KT 21/13 A3005 RMK A01 T02100131  RH  060%=      5-min Rain = 0
KCL2 140554Z 14010KT 21/13 A3005 RMK A01 T02100131  RH  060%=      5-min Rain = 0
KCL2 140555Z 14008KT 21/13 A3005 RMK A01 T02100131  RH  060%=      5-min Rain = 0
KCL2 140556Z 14011KT 21/13 A3005 RMK A01 T02100131  RH  060%=      5-min Rain = 0
KCL2 140557Z 14009KT 21/13 A3005 RMK A01 T02100131  RH  060%=      5-min Rain = 0
KCL2 140558Z 14010KT 21/13 A3005 RMK A01 T02100131  RH  061%=      5-min Rain = 0
KCL2 140559Z 15008KT 21/13 A3005 RMK A01 T02100131  RH  061%=      5-min Rain = 0
KCL2 140600Z 15010KT 21/13 A3005 RMK A01 T02100131  RH  061%=      5-min Rain = 0
KCL2 140601Z 15010KT 21/13 A3005 RMK A01 T02100131  RH  061%=      5-min Rain = 0
KCL2 140602Z 14007KT 21/13 A3006 RMK A01 T02090131  RH  061%=      5-min Rain = 0
KCL2 140603Z 15009KT 21/13 A3006 RMK A01 T02090131  RH  061%=      5-min Rain = 0
KCL2 140604Z 14008KT 21/13 A3006 RMK A01 T02090132  RH  061%=      5-min Rain = 0
KCL2 140605Z 15007KT 21/13 A3006 RMK A01 T02080132  RH  061%=      5-min Rain = 0
KCL2 140606Z 15009KT 21/13 A3006 RMK A01 T02080131  RH  062%=      5-min Rain = 0
KCL2 140607Z 15008KT 21/13 A3006 RMK A01 T02080131  RH  062%=      5-min Rain = 0
KCL2 140608Z 15007KT 21/13 A3006 RMK A01 T02080132  RH  062%=      5-min Rain = 0
KCL2 140609Z 14007KT 21/13 A3006 RMK A01 T02070132  RH  062%=      5-min Rain = 0
KCL2 140610Z 15007KT 21/13 A3006 RMK A01 T02070132  RH  062%=      5-min Rain = 0
KCL2 140611Z 15008KT 21/13 A3006 RMK A01 T02060132  RH  063%=      5-min Rain = 0
KCL2 140612Z 14009KT 21/13 A3006 RMK A01 T02050132  RH  063%=      5-min Rain = 0
KCL2 140613Z 15007KT 21/13 A3006 RMK A01 T02050132  RH  063%=      5-min Rain = 0
KCL2 140614Z 15007KT 21/13 A3006 RMK A01 T02060133  RH  063%=      5-min Rain = 0
KCL2 140615Z 15008KT 21/13 A3006 RMK A01 T02050133  RH  063%=      5-min Rain = 0
KCL2 140616Z 15008KT 21/13 A3006 RMK A01 T02050133  RH  063%=      5-min Rain = 0
KCL2 140617Z 16008KT 21/13 A3006 RMK A01 T02050133  RH  063%=      5-min Rain = 0
KCL2 140618Z 15008KT 21/13 A3006 RMK A01 T02050133  RH  063%=      5-min Rain = 0
KCL2 140619Z 15008KT 21/13 A3006 RMK A01 T02050133  RH  063%=      5-min Rain = 0
KCL2 140620Z 15009KT 21/13 A3005 RMK A01 T02050133  RH  063%=      5-min Rain = 0
KCL2 140621Z 15011KT 20/13 A3005 RMK A01 T02040133  RH  063%=      5-min Rain = 0
KCL2 140622Z 15007KT 20/13 A3005 RMK A01 T02040133  RH  063%=      5-min Rain = 0
KCL2 140623Z 15009KT 20/13 A3005 RMK A01 T02040133  RH  064%=      5-min Rain = 0
KCL2 140624Z 15008KT 20/13 A3005 RMK A01 T02040133  RH  064%=      5-min Rain = 0
KCL2 140625Z 15009KT 20/13 A3005 RMK A01 T02040133  RH  064%=      5-min Rain = 0
KCL2 140626Z 15008KT 20/13 A3005 RMK A01 T02040133  RH  064%=      5-min Rain = 0
KCL2 140627Z 15009KT 20/13 A3005 RMK A01 T02040133  RH  064%=      5-min Rain = 0
KCL2 140628Z 14008KT 20/13 A3005 RMK A01 T02040133  RH  064%=      5-min Rain = 0
KCL2 140629Z 15008KT 20/13 A3005 RMK A01 T02040133  RH  064%=      5-min Rain = 0
KCL2 140630Z 15009KT 20/13 A3005 RMK A01 T02040134  RH  064%=      5-min Rain = 0
KCL2 140631Z 15008KT 20/13 A3005 RMK A01 T02040133  RH  064%=      5-min Rain = 0
KCL2 140632Z 15009KT 20/13 A3004 RMK A01 T02040134  RH  064%=      5-min Rain = 0
KCL2 140633Z 15008KT 20/13 A3004 RMK A01 T02040134  RH  064%=      5-min Rain = 0
KCL2 140634Z 15008KT 20/13 A3004 RMK A01 T02040134  RH  064%=      5-min Rain = 0
KCL2 140635Z 15008KT 20/13 A3004 RMK A01 T02030134  RH  064%=      5-min Rain = 0
KCL2 140636Z 15010KT 20/13 A3004 RMK A01 T02030134  RH  065%=      5-min Rain = 0
KCL2 140637Z 15008KT 20/13 A3004 RMK A01 T02030134  RH  065%=      5-min Rain = 0
KCL2 140638Z 15008KT 20/14 A3004 RMK A01 T02030135  RH  065%=      5-min Rain = 0
KCL2 140639Z 15007KT 20/13 A3004 RMK A01 T02020134  RH  065%=      5-min Rain = 0
KCL2 140640Z 15009KT 20/13 A3004 RMK A01 T02020134  RH  065%=      5-min Rain = 0
KCL2 140641Z 16009KT 20/14 A3004 RMK A01 T02020135  RH  065%=      5-min Rain = 0
KCL2 140642Z 15009KT 20/13 A3004 RMK A01 T02020134  RH  065%=      5-min Rain = 0
KCL2 140643Z 16008KT 20/13 A3003 RMK A01 T02030134  RH  065%=      5-min Rain = 0
KCL2 140644Z 15009KT 20/14 A3003 RMK A01 T02030135  RH  065%=      5-min Rain = 0
KCL2 140645Z 15009KT 20/13 A3003 RMK A01 T02030134  RH  065%=      5-min Rain = 0
KCL2 140646Z 15009KT 20/13 A3003 RMK A01 T02030134  RH  065%=      5-min Rain = 0
KCL2 140647Z 15011KT 20/13 A3004 RMK A01 T02030134  RH  065%=      5-min Rain = 0
KCL2 140648Z 15009KT 20/13 A3004 RMK A01 T02040134  RH  064%=      5-min Rain = 0
KCL2 140649Z 15009KT 20/14 A3004 RMK A01 T02040135  RH  064%=      5-min Rain = 0
KCL2 140650Z 16008KT 20/14 A3004 RMK A01 T02040135  RH  064%=      5-min Rain = 0
KCL2 140651Z 15009KT 20/14 A3004 RMK A01 T02040136  RH  065%=      5-min Rain = 0
KCL2 140652Z 15008G13KT 20/14 A3004 RMK A01 T02040135  RH  065%=      5-min Rain = 0
KCL2 140653Z 16009KT 20/14 A3004 RMK A01 T02030136  RH  065%=      5-min Rain = 0
KCL2 140654Z 15010KT 20/14 A3004 RMK A01 T02030135  RH  065%=      5-min Rain = 0
KCL2 140655Z 15009KT 20/14 A3004 RMK A01 T02030135  RH  065%=      5-min Rain = 0
KCL2 140656Z 15010KT 20/14 A3004 RMK A01 T02030135  RH  065%=      5-min Rain = 0
KCL2 140657Z 15011KT 20/14 A3004 RMK A01 T02020135  RH  065%=      5-min Rain = 0
KCL2 140658Z 15008KT 20/14 A3003 RMK A01 T02030135  RH  065%=      5-min Rain = 0
KCL2 140659Z 15009KT 20/14 A3003 RMK A01 T02030136  RH  065%=      5-min Rain = 0
KCL2 140700Z 15008KT 20/14 A3003 RMK A01 T02030136  RH  065%=      5-min Rain = 0
KCL2 140701Z 15008KT 20/14 A3003 RMK A01 T02030136  RH  065%=      5-min Rain = 0
KCL2 140702Z 15007KT 20/14 A3004 RMK A01 T02020136  RH  066%=      5-min Rain = 0
KCL2 140703Z 14008KT 20/14 A3004 RMK A01 T02020136  RH  066%=      5-min Rain = 0
KCL2 140704Z 15008KT 20/14 A3004 RMK A01 T02020136  RH  066%=      5-min Rain = 0
KCL2 140705Z 15008KT 20/14 A3004 RMK A01 T02020136  RH  066%=      5-min Rain = 0
KCL2 140706Z 15008KT 20/14 A3004 RMK A01 T02020136  RH  066%=      5-min Rain = 0
KCL2 140707Z 15006KT 20/14 A3004 RMK A01 T02020136  RH  066%=      5-min Rain = 0
KCL2 140708Z 15006KT 20/14 A3004 RMK A01 T02020137  RH  066%=      5-min Rain = 0
KCL2 140709Z 15007KT 20/14 A3004 RMK A01 T02010137  RH  066%=      5-min Rain = 0
KCL2 140710Z 15007KT 20/14 A3004 RMK A01 T02010136  RH  067%=      5-min Rain = 0
KCL2 140711Z 15007KT 20/14 A3004 RMK A01 T02000137  RH  067%=      5-min Rain = 0
KCL2 140712Z 15007KT 20/14 A3004 RMK A01 T02000137  RH  067%=      5-min Rain = 0
KCL2 140713Z 15007KT 20/14 A3004 RMK A01 T02000137  RH  067%=      5-min Rain = 0
KCL2 140714Z 15008KT 20/14 A3004 RMK A01 T02000136  RH  067%=      5-min Rain = 0
KCL2 140715Z 15007KT 20/14 A3004 RMK A01 T02000137  RH  067%=      5-min Rain = 0
KCL2 140716Z 16009KT 20/14 A3004 RMK A01 T02000137  RH  067%=      5-min Rain = 0
KCL2 140717Z 15008KT 20/14 A3004 RMK A01 T02000136  RH  067%=      5-min Rain = 0
KCL2 140718Z 15009KT 20/14 A3004 RMK A01 T02000137  RH  067%=      5-min Rain = 0
KCL2 140719Z 15009KT 20/14 A3004 RMK A01 T02000137  RH  067%=      5-min Rain = 0
KCL2 140720Z 15008KT 20/14 A3004 RMK A01 T02000137  RH  067%=      5-min Rain = 0
KCL2 140721Z 15009KT 20/14 A3003 RMK A01 T02000138  RH  067%=      5-min Rain = 0
KCL2 140722Z 15010KT 20/14 A3003 RMK A01 T02000137  RH  067%=      5-min Rain = 0
KCL2 140723Z 15009KT 20/14 A3003 RMK A01 T01990137  RH  067%=      5-min Rain = 0
KCL2 140724Z 15009KT 20/14 A3003 RMK A01 T01990137  RH  067%=      5-min Rain = 0
KCL2 140725Z 15008KT 20/14 A3003 RMK A01 T02000137  RH  067%=      5-min Rain = 0
KCL2 140726Z 15009KT 20/14 A3003 RMK A01 T01990137  RH  067%=      5-min Rain = 0
KCL2 140727Z 15010KT 20/14 A3003 RMK A01 T01990137  RH  067%=      5-min Rain = 0
KCL2 140728Z 15009KT 20/14 A3003 RMK A01 T02000137  RH  067%=      5-min Rain = 0
KCL2 140729Z 15009KT 20/14 A3003 RMK A01 T02000137  RH  067%=      5-min Rain = 0
KCL2 140730Z 15009KT 20/14 A3003 RMK A01 T02000137  RH  067%=      5-min Rain = 0
KCL2 140731Z 15009KT 20/14 A3003 RMK A01 T02000138  RH  067%=      5-min Rain = 0
KCL2 140732Z 15008KT 20/14 A3003 RMK A01 T01990137  RH  067%=      5-min Rain = 0
KCL2 140733Z 15011KT 20/14 A3003 RMK A01 T01990138  RH  068%=      5-min Rain = 0
KCL2 140734Z 15010KT 20/14 A3003 RMK A01 T01990138  RH  068%=      5-min Rain = 0
KCL2 140735Z 15010KT 20/14 A3003 RMK A01 T01990137  RH  067%=      5-min Rain = 0
KCL2 140736Z 15011KT 20/14 A3003 RMK A01 T01990138  RH  068%=      5-min Rain = 0
KCL2 140737Z 15011KT 20/14 A3003 RMK A01 T01990137  RH  067%=      5-min Rain = 0
KCL2 140738Z 15009KT 20/14 A3003 RMK A01 T01990137  RH  067%=      5-min Rain = 0
KCL2 140739Z 15011KT 20/14 A3003 RMK A01 T01990138  RH  068%=      5-min Rain = 0
KCL2 140740Z 15011KT 20/14 A3003 RMK A01 T01990137  RH  067%=      5-min Rain = 0
KCL2 140741Z 15010KT 20/14 A3003 RMK A01 T01990138  RH  068%=      5-min Rain = 0
KCL2 140742Z 15011KT 20/14 A3003 RMK A01 T01990138  RH  068%=      5-min Rain = 0
KCL2 140743Z 14009KT 20/14 A3003 RMK A01 T01990138  RH  068%=      5-min Rain = 0
KCL2 140744Z 15010KT 20/14 A3002 RMK A01 T01990138  RH  068%=      5-min Rain = 0
KCL2 140745Z 15010G15KT 20/14 A3002 RMK A01 T01990138  RH  068%=      5-min Rain = 0
KCL2 140746Z 14011KT 20/14 A3002 RMK A01 T01990138  RH  068%=      5-min Rain = 0
KCL2 140747Z 15010KT 20/14 A3002 RMK A01 T01990138  RH  068%=      5-min Rain = 0
KCL2 140748Z 15010KT 20/14 A3002 RMK A01 T01980138  RH  068%=      5-min Rain = 0
KCL2 140749Z 15009KT 20/14 A3002 RMK A01 T01980138  RH  068%=      5-min Rain = 0
KCL2 140750Z 15012KT 20/14 A3002 RMK A01 T01980138  RH  068%=      5-min Rain = 0
KCL2 140751Z 16011G16KT 20/14 A3002 RMK A01 T01980138  RH  068%=      5-min Rain = 0
KCL2 140752Z 15010KT 20/14 A3002 RMK A01 T01980138  RH  068%=      5-min Rain = 0
KCL2 140753Z 15010KT 20/14 A3002 RMK A01 T01980138  RH  069%=      5-min Rain = 0
KCL2 140754Z 16010KT 20/14 A3002 RMK A01 T01980138  RH  069%=      5-min Rain = 0
KCL2 140755Z 16010KT 20/14 A3002 RMK A01 T01970138  RH  069%=      5-min Rain = 0
KCL2 140756Z 16010KT 20/14 A3002 RMK A01 T01970139  RH  069%=      5-min Rain = 0
KCL2 140757Z 15010KT 20/14 A3002 RMK A01 T01970139  RH  069%=      5-min Rain = 0
KCL2 140758Z 15010KT 20/14 A3002 RMK A01 T01970139  RH  069%=      5-min Rain = 0
KCL2 140759Z 15010KT 20/14 A3002 RMK A01 T01970139  RH  069%=      5-min Rain = 0
KCL2 140800Z 15010KT 20/14 A3002 RMK A01 T01970139  RH  069%=      5-min Rain = 0
KCL2 140801Z 15011KT 20/14 A3002 RMK A01 T01970139  RH  069%=      5-min Rain = 0
KCL2 140802Z 15011KT 20/14 A3002 RMK A01 T01970138  RH  069%=      5-min Rain = 0
KCL2 140803Z 15010KT 20/14 A3002 RMK A01 T01970139  RH  069%=      5-min Rain = 0
KCL2 140804Z 15011KT 20/14 A3002 RMK A01 T01970139  RH  069%=      5-min Rain = 0
KCL2 140805Z 16011KT 20/14 A3002 RMK A01 T01970139  RH  069%=      5-min Rain = 0
KCL2 140806Z 16012KT 20/14 A3002 RMK A01 T01970138  RH  069%=      5-min Rain = 0
KCL2 140807Z 15012KT 20/14 A3002 RMK A01 T01970138  RH  069%=      5-min Rain = 0
KCL2 140808Z 15010KT 20/14 A3002 RMK A01 T01980138  RH  068%=      5-min Rain = 0
KCL2 140809Z 16013KT 20/14 A3002 RMK A01 T01980139  RH  069%=      5-min Rain = 0
KCL2 140810Z 15011KT 20/14 A3002 RMK A01 T01980138  RH  068%=      5-min Rain = 0
KCL2 140811Z 16012KT 20/14 A3002 RMK A01 T01980138  RH  068%=      5-min Rain = 0
KCL2 140812Z 16012KT 20/14 A3002 RMK A01 T01980139  RH  068%=      5-min Rain = 0
KCL2 140813Z 15011KT 20/14 A3002 RMK A01 T01990139  RH  068%=      5-min Rain = 0
KCL2 140814Z 16012KT 20/14 A3002 RMK A01 T01980138  RH  068%=      5-min Rain = 0
KCL2 140815Z 15011KT 20/14 A3002 RMK A01 T01990139  RH  068%=      5-min Rain = 0
KCL2 140816Z 15010KT 20/14 A3002 RMK A01 T01990138  RH  068%=      5-min Rain = 0
KCL2 140817Z 15012KT 20/14 A3002 RMK A01 T01990139  RH  068%=      5-min Rain = 0
KCL2 140818Z 15012KT 20/14 A3002 RMK A01 T01990139  RH  068%=      5-min Rain = 0
KCL2 140819Z 15012G17KT 20/14 A3002 RMK A01 T01990139  RH  068%=      5-min Rain = 0
KCL2 140820Z 15011KT 20/14 A3002 RMK A01 T01990138  RH  068%=      5-min Rain = 0
KCL2 140821Z 15012KT 20/14 A3002 RMK A01 T01990139  RH  068%=      5-min Rain = 0
KCL2 140822Z 15013KT 20/14 A3002 RMK A01 T01990139  RH  068%=      5-min Rain = 0
KCL2 140823Z 15012KT 20/14 A3002 RMK A01 T01990139  RH  068%=      5-min Rain = 0
KCL2 140824Z 15011KT 20/14 A3002 RMK A01 T01990139  RH  068%=      5-min Rain = 0
KCL2 140825Z 15010KT 20/14 A3002 RMK A01 T01990139  RH  068%=      5-min Rain = 0
KCL2 140826Z 15011KT 20/14 A3002 RMK A01 T01990139  RH  068%=      5-min Rain = 0
KCL2 140827Z 16011KT 20/14 A3002 RMK A01 T01990139  RH  068%=      5-min Rain = 0
KCL2 140828Z 15011KT 20/14 A3002 RMK A01 T01990139  RH  068%=      5-min Rain = 0
KCL2 140829Z 15011KT 20/14 A3002 RMK A01 T02000139  RH  068%=      5-min Rain = 0
KCL2 140830Z 15012KT 20/14 A3002 RMK A01 T01990139  RH  068%=      5-min Rain = 0
KCL2 140831Z 15012KT 20/14 A3002 RMK A01 T01990139  RH  068%=      5-min Rain = 0
KCL2 140832Z 15012KT 20/14 A3002 RMK A01 T01990139  RH  068%=      5-min Rain = 0
KCL2 140833Z 16012KT 20/14 A3002 RMK A01 T01990139  RH  068%=      5-min Rain = 0
KCL2 140834Z 15011G16KT 20/14 A3002 RMK A01 T01990139  RH  068%=      5-min Rain = 0
KCL2 140835Z 16011KT 20/14 A3002 RMK A01 T01990139  RH  068%=      5-min Rain = 0
KCL2 140836Z 16010KT 20/14 A3002 RMK A01 T01990140  RH  068%=      5-min Rain = 0
KCL2 140837Z 16012KT 20/14 A3002 RMK A01 T01990140  RH  068%=      5-min Rain = 0
KCL2 140838Z 16011KT 20/14 A3002 RMK A01 T01990140  RH  068%=      5-min Rain = 0
KCL2 140839Z 16011KT 20/14 A3002 RMK A01 T01990140  RH  069%=      5-min Rain = 0
KCL2 140840Z 16013KT 20/14 A3002 RMK A01 T01990140  RH  069%=      5-min Rain = 0
KCL2 140841Z 16013KT 20/14 A3002 RMK A01 T01990139  RH  068%=      5-min Rain = 0
KCL2 140842Z 16012KT 20/14 A3002 RMK A01 T02000139  RH  068%=      5-min Rain = 0
KCL2 140843Z 16013KT 20/14 A3002 RMK A01 T02000140  RH  068%=      5-min Rain = 0
KCL2 140844Z 16011KT 20/14 A3002 RMK A01 T02000140  RH  068%=      5-min Rain = 0
KCL2 140845Z 16011KT 20/14 A3002 RMK A01 T02000140  RH  068%=      5-min Rain = 0
KCL2 140846Z 16011KT 20/14 A3002 RMK A01 T02000140  RH  069%=      5-min Rain = 0
KCL2 140847Z 15012KT 20/14 A3002 RMK A01 T01990140  RH  069%=      5-min Rain = 0
KCL2 140848Z 15012KT 20/14 A3002 RMK A01 T01990140  RH  068%=      5-min Rain = 0
KCL2 140849Z 16011KT 20/14 A3002 RMK A01 T02000140  RH  068%=      5-min Rain = 0
KCL2 140850Z 16012KT 20/14 A3002 RMK A01 T02000140  RH  068%=      5-min Rain = 0
KCL2 140851Z 16010KT 20/14 A3002 RMK A01 T02000140  RH  068%=      5-min Rain = 0
KCL2 140852Z 16011KT 20/14 A3002 RMK A01 T02000140  RH  068%=      5-min Rain = 0
KCL2 140853Z 16012KT 20/14 A3002 RMK A01 T02000140  RH  068%=      5-min Rain = 0
KCL2 140854Z 16011KT 20/14 A3002 RMK A01 T02000140  RH  068%=      5-min Rain = 0
KCL2 140855Z 16011G16KT 20/14 A3002 RMK A01 T02000140  RH  068%=      5-min Rain = 0
KCL2 140856Z 15012KT 20/14 A3002 RMK A01 T02000140  RH  068%=      5-min Rain = 0
KCL2 140857Z 16013G18KT 20/14 A3002 RMK A01 T02000140  RH  068%=      5-min Rain = 0
KCL2 140858Z 16012G18KT 20/14 A3002 RMK A01 T02000140  RH  068%=      5-min Rain = 0
KCL2 140859Z 16010KT 20/14 A3002 RMK A01 T02010141  RH  068%=      5-min Rain = 0
KCL2 140900Z 16012KT 20/14 A3002 RMK A01 T02010141  RH  068%=      5-min Rain = 0
KCL2 140901Z 16012KT 20/14 A3002 RMK A01 T02010141  RH  068%=      5-min Rain = 0
KCL2 140902Z 16011KT 20/14 A3002 RMK A01 T02010141  RH  069%=      5-min Rain = 0
KCL2 140903Z 16012KT 20/14 A3002 RMK A01 T02010141  RH  069%=      5-min Rain = 0
KCL2 140904Z 16013KT 20/14 A3001 RMK A01 T02010141  RH  069%=      5-min Rain = 0
KCL2 140905Z 15012KT 20/14 A3001 RMK A01 T02010141  RH  068%=      5-min Rain = 0
KCL2 140906Z 15013KT 20/14 A3001 RMK A01 T02010141  RH  068%=      5-min Rain = 0
KCL2 140907Z 15011KT 20/14 A3001 RMK A01 T02010141  RH  068%=      5-min Rain = 0
KCL2 140908Z 15012KT 20/14 A3001 RMK A01 T02010142  RH  069%=      5-min Rain = 0
KCL2 140909Z 16011KT 20/14 A3001 RMK A01 T02010141  RH  068%=      5-min Rain = 0
KCL2 140910Z 16010KT 20/14 A3002 RMK A01 T02010142  RH  069%=      5-min Rain = 0
KCL2 140911Z 16011KT 20/14 A3002 RMK A01 T02000142  RH  069%=      5-min Rain = 0
KCL2 140912Z 15011KT 20/14 A3002 RMK A01 T02000142  RH  069%=      5-min Rain = 0
KCL2 140913Z 15010KT 20/14 A3002 RMK A01 T02000141  RH  069%=      5-min Rain = 0
KCL2 140914Z 15010KT 20/14 A3002 RMK A01 T02000142  RH  069%=      5-min Rain = 0
KCL2 140915Z 15011KT 20/14 A3002 RMK A01 T02000142  RH  069%=      5-min Rain = 0
KCL2 140916Z 15012KT 20/14 A3001 RMK A01 T02000142  RH  069%=      5-min Rain = 0
KCL2 140917Z 15012KT 20/14 A3001 RMK A01 T02000141  RH  069%=      5-min Rain = 0
KCL2 140918Z 15012KT 20/14 A3001 RMK A01 T02010141  RH  069%=      5-min Rain = 0
KCL2 140919Z 16010KT 20/14 A3002 RMK A01 T02010141  RH  069%=      5-min Rain = 0
KCL2 140920Z 15011KT 20/14 A3002 RMK A01 T02010142  RH  069%=      5-min Rain = 0
KCL2 140921Z 15008KT 20/14 A3002 RMK A01 T02010142  RH  069%=      5-min Rain = 0
KCL2 140922Z 15011KT 20/14 A3002 RMK A01 T02010142  RH  069%=      5-min Rain = 0
KCL2 140923Z 15010KT 20/14 A3002 RMK A01 T02000142  RH  069%=      5-min Rain = 0
KCL2 140924Z 15014KT 20/14 A3002 RMK A01 T02000142  RH  069%=      5-min Rain = 0
KCL2 140925Z 15011G16KT 20/14 A3002 RMK A01 T02000142  RH  069%=      5-min Rain = 0
KCL2 140926Z 15012KT 20/14 A3002 RMK A01 T02000142  RH  069%=      5-min Rain = 0
KCL2 140927Z 15012G17KT 20/14 A3002 RMK A01 T02000142  RH  069%=      5-min Rain = 0
KCL2 140928Z 15012KT 20/14 A3001 RMK A01 T02010142  RH  069%=      5-min Rain = 0
KCL2 140929Z 16012KT 20/14 A3001 RMK A01 T02010142  RH  069%=      5-min Rain = 0
KCL2 140930Z 15011KT 20/14 A3002 RMK A01 T02010142  RH  069%=      5-min Rain = 0
KCL2 140931Z 15011KT 20/14 A3002 RMK A01 T02010142  RH  069%=      5-min Rain = 0
KCL2 140932Z 15012KT 20/14 A3002 RMK A01 T02010142  RH  069%=      5-min Rain = 0
KCL2 140933Z 16012KT 20/14 A3001 RMK A01 T02010142  RH  069%=      5-min Rain = 0
KCL2 140934Z 15014KT 20/14 A3002 RMK A01 T02010142  RH  069%=      5-min Rain = 0
KCL2 140935Z 15013KT 20/14 A3001 RMK A01 T02010142  RH  069%=      5-min Rain = 0
KCL2 140936Z 15013KT 20/14 A3001 RMK A01 T02010142  RH  069%=      5-min Rain = 0
KCL2 140937Z 16013KT 20/14 A3002 RMK A01 T02010142  RH  069%=      5-min Rain = 0
KCL2 140938Z 15012KT 20/14 A3002 RMK A01 T02010142  RH  069%=      5-min Rain = 0
KCL2 140939Z 16012KT 20/14 A3002 RMK A01 T02010143  RH  069%=      5-min Rain = 0
KCL2 140940Z 16012KT 20/14 A3002 RMK A01 T02010143  RH  069%=      5-min Rain = 0
KCL2 140941Z 16012KT 20/14 A3002 RMK A01 T02000143  RH  069%=      5-min Rain = 0
KCL2 140942Z 16011KT 20/14 A3002 RMK A01 T02000143  RH  070%=      5-min Rain = 0
KCL2 140943Z 16012KT 20/14 A3002 RMK A01 T02000143  RH  070%=      5-min Rain = 0
KCL2 140944Z 16013KT 20/14 A3002 RMK A01 T02000143  RH  070%=      5-min Rain = 0
KCL2 140945Z 16011KT 20/14 A3002 RMK A01 T02000143  RH  070%=      5-min Rain = 0
KCL2 140946Z 16012KT 20/14 A3002 RMK A01 T02000143  RH  070%=      5-min Rain = 0
KCL2 140947Z 16011KT 20/14 A3002 RMK A01 T01990143  RH  070%=      5-min Rain = 0
KCL2 140948Z 16012KT 20/14 A3002 RMK A01 T02000144  RH  070%=      5-min Rain = 0
KCL2 140949Z 16010KT 20/14 A3002 RMK A01 T01990143  RH  070%=      5-min Rain = 0
KCL2 140950Z 16011KT 20/14 A3002 RMK A01 T01990143  RH  070%=      5-min Rain = 0
KCL2 140951Z 16010KT 20/14 A3002 RMK A01 T01990144  RH  071%=      5-min Rain = 0
KCL2 140952Z 16011KT 20/14 A3002 RMK A01 T01980144  RH  071%=      5-min Rain = 0
KCL2 140953Z 16011G16KT 20/14 A3002 RMK A01 T01980144  RH  071%=      5-min Rain = 0
KCL2 140954Z 16012KT 20/14 A3002 RMK A01 T01980143  RH  071%=      5-min Rain = 0
KCL2 140955Z 16011KT 20/14 A3002 RMK A01 T01990144  RH  071%=      5-min Rain = 0
KCL2 140956Z 16011KT 20/14 A3002 RMK A01 T01980143  RH  071%=      5-min Rain = 0
KCL2 140957Z 16011KT 20/14 A3002 RMK A01 T01990144  RH  071%=      5-min Rain = 0
KCL2 140958Z 15013KT 20/14 A3002 RMK A01 T01980144  RH  071%=      5-min Rain = 0
KCL2 140959Z 16011KT 20/14 A3002 RMK A01 T01980144  RH  071%=      5-min Rain = 0
KCL2 141000Z 15012KT 20/14 A3002 RMK A01 T01980144  RH  071%=      5-min Rain = 0
KCL2 141001Z 15011KT 20/14 A3002 RMK A01 T01980144  RH  071%=      5-min Rain = 0
KCL2 141002Z 16012KT 20/14 A3002 RMK A01 T01980144  RH  071%=      5-min Rain = 0
KCL2 141003Z 16013KT 20/15 A3002 RMK A01 T01990145  RH  071%=      5-min Rain = 0
KCL2 141004Z 16012KT 20/14 A3002 RMK A01 T01980144  RH  071%=      5-min Rain = 0
KCL2 141005Z 16014KT 20/14 A3002 RMK A01 T01980144  RH  071%=      5-min Rain = 0
KCL2 141006Z 15010KT 20/14 A3002 RMK A01 T01980144  RH  071%=      5-min Rain = 0
KCL2 141007Z 16011KT 20/15 A3002 RMK A01 T01990145  RH  071%=      5-min Rain = 0
KCL2 141008Z 16010KT 20/15 A3002 RMK A01 T01980145  RH  071%=      5-min Rain = 0
KCL2 141009Z 16012KT 20/15 A3002 RMK A01 T01980145  RH  071%=      5-min Rain = 0
KCL2 141010Z 15014KT 20/15 A3002 RMK A01 T01980145  RH  071%=      5-min Rain = 0
KCL2 141011Z 16013KT 20/15 A3002 RMK A01 T01980145  RH  071%=      5-min Rain = 0
KCL2 141012Z 16012KT 20/15 A3002 RMK A01 T01980145  RH  071%=      5-min Rain = 0
KCL2 141013Z 16011KT 20/15 A3002 RMK A01 T01980145  RH  071%=      5-min Rain = 0
KCL2 141014Z 15014KT 20/15 A3002 RMK A01 T01990145  RH  071%=      5-min Rain = 0
KCL2 141015Z 16011KT 20/15 A3002 RMK A01 T01990145  RH  071%=      5-min Rain = 0
KCL2 141016Z 15010KT 20/15 A3002 RMK A01 T01980145  RH  072%=      5-min Rain = 0
KCL2 141017Z 16011KT 20/15 A3002 RMK A01 T01980145  RH  072%=      5-min Rain = 0
KCL2 141018Z 15012KT 20/15 A3001 RMK A01 T01980146  RH  072%=      5-min Rain = 0
KCL2 141019Z 15012KT 20/15 A3001 RMK A01 T01970145  RH  072%=      5-min Rain = 0
KCL2 141020Z 15011G17KT 20/15 A3001 RMK A01 T01970145  RH  072%=      5-min Rain = 0
KCL2 141021Z 15013G18KT 20/15 A3001 RMK A01 T01970145  RH  072%=      5-min Rain = 0
KCL2 141022Z 15011KT 20/15 A3001 RMK A01 T01970146  RH  072%=      5-min Rain = 0
KCL2 141023Z 15012KT 20/15 A3001 RMK A01 T01970146  RH  072%=      5-min Rain = 0
KCL2 141024Z 16012KT 20/15 A3001 RMK A01 T01970146  RH  072%=      5-min Rain = 0
KCL2 141025Z 16012KT 20/15 A3001 RMK A01 T01970146  RH  072%=      5-min Rain = 0
KCL2 141026Z 16015KT 20/15 A3001 RMK A01 T01970146  RH  072%=      5-min Rain = 0
KCL2 141027Z 16012KT 20/15 A3001 RMK A01 T01970146  RH  072%=      5-min Rain = 0
KCL2 141028Z 16012KT 20/15 A3001 RMK A01 T01970146  RH  072%=      5-min Rain = 0
KCL2 141029Z 16011KT 20/15 A3001 RMK A01 T01970147  RH  073%=      5-min Rain = 0
KCL2 141030Z 16011KT 20/15 A3001 RMK A01 T01970146  RH  073%=      5-min Rain = 0
KCL2 141031Z 16013G18KT 20/15 A3001 RMK A01 T01970147  RH  073%=      5-min Rain = 0
KCL2 141032Z 16011KT 20/15 A3001 RMK A01 T01970147  RH  073%=      5-min Rain = 0
KCL2 141033Z 16013KT 20/15 A3001 RMK A01 T01970147  RH  073%=      5-min Rain = 0
KCL2 141034Z 16011KT 20/15 A3001 RMK A01 T01970147  RH  073%=      5-min Rain = 0
KCL2 141035Z 16011KT 20/15 A3001 RMK A01 T01960147  RH  073%=      5-min Rain = 0
KCL2 141036Z 16011KT 20/15 A3001 RMK A01 T01960147  RH  073%=      5-min Rain = 0
KCL2 141037Z 16011KT 20/15 A3001 RMK A01 T01960147  RH  073%=      5-min Rain = 0
KCL2 141038Z 16010KT 20/15 A3001 RMK A01 T01960147  RH  073%=      5-min Rain = 0
KCL2 141039Z 16010KT 20/15 A3001 RMK A01 T01960147  RH  073%=      5-min Rain = 0
KCL2 141040Z 16011KT 20/15 A3001 RMK A01 T01960147  RH  073%=      5-min Rain = 0
KCL2 141041Z 16011KT 20/15 A3001 RMK A01 T01960148  RH  073%=      5-min Rain = 0
KCL2 141042Z 15010KT 20/15 A3001 RMK A01 T01960148  RH  074%=      5-min Rain = 0
KCL2 141043Z 16010KT 20/15 A3001 RMK A01 T01960148  RH  074%=      5-min Rain = 0
KCL2 141044Z 15011KT 20/15 A3001 RMK A01 T01960148  RH  074%=      5-min Rain = 0
KCL2 141045Z 16010KT 20/15 A3001 RMK A01 T01960148  RH  074%=      5-min Rain = 0
KCL2 141046Z 15009KT 20/15 A3001 RMK A01 T01960148  RH  074%=      5-min Rain = 0
KCL2 141047Z 15009KT 20/15 A3001 RMK A01 T01960148  RH  074%=      5-min Rain = 0
KCL2 141048Z 15012KT 20/15 A3001 RMK A01 T01960148  RH  074%=      5-min Rain = 0
KCL2 141049Z 15012G17KT 20/15 A3001 RMK A01 T01960148  RH  074%=      5-min Rain = 0
KCL2 141050Z 15011KT 20/15 A3001 RMK A01 T01960148  RH  074%=      5-min Rain = 0
KCL2 141051Z 15013KT 20/15 A3001 RMK A01 T01960148  RH  074%=      5-min Rain = 0
KCL2 141052Z 15013KT 20/15 A3001 RMK A01 T01960147  RH  074%=      5-min Rain = 0
KCL2 141053Z 15011KT 20/15 A30 RMK A01 T01960148  RH  074%=      5-min Rain = 0
KCL2 141054Z 15011KT 20/15 A30 RMK A01 T01960148  RH  074%=      5-min Rain = 0
KCL2 141055Z 15012KT 20/15 A30 RMK A01 T01960148  RH  074%=      5-min Rain = 0
KCL2 141056Z 16010KT 20/15 A30 RMK A01 T01960148  RH  074%=      5-min Rain = 0
KCL2 141057Z 15014KT 20/15 A30 RMK A01 T01960148  RH  074%=      5-min Rain = 0
KCL2 141058Z 15012G18KT 20/15 A30 RMK A01 T01960148  RH  074%=      5-min Rain = 0
KCL2 141059Z 15012KT 20/15 A30 RMK A01 T01960148  RH  074%=      5-min Rain = 0
KCL2 141100Z 15012KT 20/15 A30 RMK A01 T01960148  RH  074%=      5-min Rain = 0
KCL2 141101Z 16013KT 20/15 A30 RMK A01 T01960148  RH  074%=      5-min Rain = 0
KCL2 141102Z 15010KT 20/15 A30 RMK A01 T01960148  RH  074%=      5-min Rain = 0
KCL2 141103Z 15012KT 20/15 A30 RMK A01 T01960148  RH  074%=      5-min Rain = 0
KCL2 141104Z 16011KT 20/15 A30 RMK A01 T01960149  RH  074%=      5-min Rain = 0
KCL2 141105Z 15012KT 20/15 A30 RMK A01 T01960149  RH  074%=      5-min Rain = 0
KCL2 141106Z 15009KT 20/15 A30 RMK A01 T01960149  RH  074%=      5-min Rain = 0
KCL2 141107Z 16012KT 20/15 A30 RMK A01 T01950149  RH  074%=      5-min Rain = 0
KCL2 141108Z 16010KT 20/15 A3001 RMK A01 T01950149  RH  075%=      5-min Rain = 0
KCL2 141109Z 15012KT 20/15 A3001 RMK A01 T01950149  RH  075%=      5-min Rain = 0
KCL2 141110Z 15011KT 20/15 A3001 RMK A01 T01950149  RH  075%=      5-min Rain = 0
KCL2 141111Z 15012KT 20/15 A3001 RMK A01 T01960149  RH  074%=      5-min Rain = 0
KCL2 141112Z 15010KT 20/15 A3001 RMK A01 T01960149  RH  074%=      5-min Rain = 0
KCL2 141113Z 16010KT 20/15 A3001 RMK A01 T01960149  RH  075%=      5-min Rain = 0
KCL2 141114Z 16011KT 20/15 A3001 RMK A01 T01960150  RH  075%=      5-min Rain = 0
KCL2 141115Z 15008KT 20/15 A3001 RMK A01 T01960150  RH  075%=      5-min Rain = 0
KCL2 141116Z 15010KT 20/15 A3002 RMK A01 T01960150  RH  075%=      5-min Rain = 0
KCL2 141117Z 15010KT 20/15 A3002 RMK A01 T01960150  RH  075%=      5-min Rain = 0
KCL2 141118Z 15010KT 20/15 A3002 RMK A01 T01960150  RH  075%=      5-min Rain = 0
KCL2 141119Z 16011KT 20/15 A3002 RMK A01 T01960150  RH  075%=      5-min Rain = 0
KCL2 141120Z 15010KT 20/15 A3002 RMK A01 T01960150  RH  075%=      5-min Rain = 0
KCL2 141121Z 15010KT 20/15 A3002 RMK A01 T01960150  RH  075%=      5-min Rain = 0
KCL2 141122Z 14010KT 20/15 A3002 RMK A01 T01960150  RH  075%=      5-min Rain = 0
KCL2 141123Z 15009KT 20/15 A3002 RMK A01 T01960151  RH  075%=      5-min Rain = 0
KCL2 141124Z 14009KT 20/15 A3002 RMK A01 T01960151  RH  075%=      5-min Rain = 0
KCL2 141125Z 15009KT 20/15 A3002 RMK A01 T01960151  RH  075%=      5-min Rain = 0
KCL2 141126Z 15009KT 20/15 A3002 RMK A01 T01960151  RH  075%=      5-min Rain = 0
KCL2 141127Z 14010KT 20/15 A3002 RMK A01 T01960151  RH  075%=      5-min Rain = 0
KCL2 141128Z 15008KT 20/15 A3002 RMK A01 T01960151  RH  075%=      5-min Rain = 0
KCL2 141129Z 15007KT 20/15 A3002 RMK A01 T01950151  RH  076%=      5-min Rain = 0
KCL2 141130Z 14009KT 20/15 A3002 RMK A01 T01960152  RH  076%=      5-min Rain = 0
KCL2 141131Z 14007KT 20/15 A3002 RMK A01 T01950151  RH  076%=      5-min Rain = 0
KCL2 141132Z 14007KT 20/15 A3002 RMK A01 T01960152  RH  076%=      5-min Rain = 0
KCL2 141133Z 14007KT 20/15 A3002 RMK A01 T01950152  RH  076%=      5-min Rain = 0
KCL2 141134Z 14007KT 20/15 A3002 RMK A01 T01950152  RH  076%=      5-min Rain = 0
KCL2 141135Z 14009KT 19/15 A3002 RMK A01 T01940152  RH  077%=      5-min Rain = 0
KCL2 141136Z 15009KT 19/15 A3002 RMK A01 T01940152  RH  077%=      5-min Rain = 0
KCL2 141137Z 14008KT 20/15 A3003 RMK A01 T01950152  RH  076%=      5-min Rain = 0
KCL2 141138Z 15008KT 20/15 A3003 RMK A01 T01950153  RH  077%=      5-min Rain = 0
KCL2 141139Z 14008KT 20/15 A3003 RMK A01 T01950153  RH  077%=      5-min Rain = 0
KCL2 141140Z 14007KT 20/15 A3003 RMK A01 T01950153  RH  077%=      5-min Rain = 0
KCL2 141141Z 15009KT 20/15 A3003 RMK A01 T01950153  RH  077%=      5-min Rain = 0
KCL2 141142Z 15008KT 20/15 A3003 RMK A01 T01950153  RH  077%=      5-min Rain = 0
KCL2 141143Z 15008KT 20/15 A3003 RMK A01 T01950153  RH  077%=      5-min Rain = 0
KCL2 141144Z 15010KT 19/15 A3003 RMK A01 T01940153  RH  077%=      5-min Rain = 0
KCL2 141145Z 14010KT 20/15 A3003 RMK A01 T01950153  RH  077%=      5-min Rain = 0
KCL2 141146Z 15008KT 20/15 A3003 RMK A01 T01950153  RH  077%=      5-min Rain = 0
KCL2 141147Z 15008KT 20/15 A3003 RMK A01 T01950154  RH  077%=      5-min Rain = 0
KCL2 141148Z 14008KT 20/15 A3003 RMK A01 T01950154  RH  077%=      5-min Rain = 0
KCL2 141149Z 14010KT 20/15 A3003 RMK A01 T01950154  RH  077%=      5-min Rain = 0
KCL2 141150Z 15011KT 20/15 A3003 RMK A01 T01950154  RH  077%=      5-min Rain = 0
KCL2 141151Z 15010KT 20/15 A3003 RMK A01 T01950154  RH  077%=      5-min Rain = 0
KCL2 141152Z 15010KT 20/15 A3003 RMK A01 T01950153  RH  077%=      5-min Rain = 0
KCL2 141153Z 15008KT 20/15 A3003 RMK A01 T01950153  RH  077%=      5-min Rain = 0
KCL2 141154Z 15009KT 20/15 A3003 RMK A01 T01950154  RH  077%=      5-min Rain = 0
KCL2 141155Z 15009KT 20/15 A3003 RMK A01 T01950154  RH  077%=      5-min Rain = 0
KCL2 141156Z 15009KT 20/15 A3003 RMK A01 T01950154  RH  077%=      5-min Rain = 0
KCL2 141157Z 15010KT 19/15 A3003 RMK A01 T01940153  RH  077%=      5-min Rain = 0
KCL2 141158Z 15009KT 19/15 A3003 RMK A01 T01940154  RH  077%=      5-min Rain = 0
KCL2 141159Z 15011KT 19/15 A3003 RMK A01 T01940154  RH  077%=      5-min Rain = 0
KCL2 141200Z 15009KT 19/15 A3003 RMK A01 T01940154  RH  077%=      5-min Rain = 0
KCL2 141201Z 15009KT 19/15 A3003 RMK A01 T01940154  RH  077%=      5-min Rain = 0
KCL2 141202Z 15010KT 19/15 A3003 RMK A01 T01940154  RH  077%=      5-min Rain = 0
KCL2 141203Z 15010KT 19/15 A3003 RMK A01 T01940153  RH  077%=      5-min Rain = 0
KCL2 141204Z 16009KT 20/15 A3003 RMK A01 T01950154  RH  077%=      5-min Rain = 0
KCL2 141205Z 16010KT 20/15 A3003 RMK A01 T01950154  RH  077%=      5-min Rain = 0
KCL2 141206Z 16010KT 20/15 A3003 RMK A01 T01950154  RH  077%=      5-min Rain = 0
KCL2 141207Z 16011KT 20/15 A3003 RMK A01 T01950154  RH  077%=      5-min Rain = 0
KCL2 141208Z 15010KT 20/15 A3003 RMK A01 T01950154  RH  077%=      5-min Rain = 0
KCL2 141209Z 15011KT 20/15 A3003 RMK A01 T01950154  RH  077%=      5-min Rain = 0
KCL2 141210Z 15012KT 20/16 A3003 RMK A01 T01950155  RH  077%=      5-min Rain = 0
KCL2 141211Z 15011KT 20/15 A3003 RMK A01 T01960154  RH  077%=      5-min Rain = 0
KCL2 141212Z 16011KT 20/15 A3003 RMK A01 T01960154  RH  077%=      5-min Rain = 0
KCL2 141213Z 15012KT 20/16 A3003 RMK A01 T01960155  RH  077%=      5-min Rain = 0
KCL2 141214Z 15010KT 20/16 A3003 RMK A01 T01960155  RH  077%=      5-min Rain = 0
KCL2 141215Z 15011KT 20/16 A3003 RMK A01 T01960156  RH  077%=      5-min Rain = 0
KCL2 141216Z 16010KT 20/16 A3003 RMK A01 T01970156  RH  077%=      5-min Rain = 0
KCL2 141217Z 15012KT 20/16 A3003 RMK A01 T01970156  RH  077%=      5-min Rain = 0
KCL2 141218Z 16011G16KT 20/16 A3003 RMK A01 T01970155  RH  077%=      5-min Rain = 0
KCL2 141219Z 15012KT 20/16 A3003 RMK A01 T01980156  RH  077%=      5-min Rain = 0
KCL2 141220Z 15010KT 20/16 A3003 RMK A01 T01980156  RH  077%=      5-min Rain = 0
KCL2 141221Z 15011KT 20/16 A3003 RMK A01 T01990156  RH  076%=      5-min Rain = 0
KCL2 141222Z 15012KT 20/16 A3003 RMK A01 T01990156  RH  076%=      5-min Rain = 0
KCL2 141223Z 14012G17KT 20/16 A3003 RMK A01 T01990156  RH  076%=      5-min Rain = 0
KCL2 141224Z 15012KT 20/16 A3003 RMK A01 T01990155  RH  076%=      5-min Rain = 0
KCL2 141225Z 15010KT 20/16 A3003 RMK A01 T01980155  RH  076%=      5-min Rain = 0
KCL2 141226Z 15012KT 20/16 A3003 RMK A01 T01990156  RH  076%=      5-min Rain = 0
KCL2 141227Z 16012G18KT 20/16 A3003 RMK A01 T01980156  RH  076%=      5-min Rain = 0
KCL2 141228Z 15013KT 20/16 A3003 RMK A01 T01990156  RH  076%=      5-min Rain = 0
KCL2 141229Z 15012KT 20/16 A3003 RMK A01 T01990155  RH  076%=      5-min Rain = 0
KCL2 141230Z 14012KT 20/16 A3003 RMK A01 T01990155  RH  076%=      5-min Rain = 0
KCL2 141231Z 15010KT 20/16 A3003 RMK A01 T01990155  RH  076%=      5-min Rain = 0
KCL2 141232Z 15010KT 20/16 A3003 RMK A01 T01990155  RH  076%=      5-min Rain = 0
KCL2 141233Z 15012KT 20/16 A3003 RMK A01 T01980155  RH  076%=      5-min Rain = 0
KCL2 141234Z 15010KT 20/16 A3003 RMK A01 T01980155  RH  076%=      5-min Rain = 0
KCL2 141235Z 15010KT 20/16 A3002 RMK A01 T01980156  RH  077%=      5-min Rain = 0
KCL2 141236Z 15010KT 20/16 A3002 RMK A01 T01980156  RH  077%=      5-min Rain = 0
KCL2 141237Z 15009KT 20/16 A3002 RMK A01 T01980157  RH  077%=      5-min Rain = 0
KCL2 141238Z 15008KT 20/16 A3002 RMK A01 T01990157  RH  077%=      5-min Rain = 0
KCL2 141239Z 15008KT 20/16 A3002 RMK A01 T01990157  RH  077%=      5-min Rain = 0
KCL2 141240Z 16011KT 20/16 A3002 RMK A01 T01990158  RH  077%=      5-min Rain = 0
KCL2 141241Z 15013KT 20/16 A3002 RMK A01 T01990158  RH  077%=      5-min Rain = 0
KCL2 141242Z 15011KT 20/16 A3002 RMK A01 T02000158  RH  077%=      5-min Rain = 0
KCL2 141243Z 16013KT 20/16 A3002 RMK A01 T02000158  RH  077%=      5-min Rain = 0
KCL2 141244Z 16011KT 20/16 A3002 RMK A01 T02000158  RH  077%=      5-min Rain = 0
KCL2 141245Z 16011KT 20/16 A3002 RMK A01 T02000158  RH  077%=      5-min Rain = 0
KCL2 141246Z 16011KT 20/16 A3002 RMK A01 T02010159  RH  077%=      5-min Rain = 0
KCL2 141247Z 16011KT 20/16 A3002 RMK A01 T02020159  RH  077%=      5-min Rain = 0
KCL2 141248Z 16011KT 20/16 A3002 RMK A01 T02020159  RH  076%=      5-min Rain = 0
KCL2 141249Z 16013G18KT 20/16 A3002 RMK A01 T02030158  RH  076%=      5-min Rain = 0
KCL2 141250Z 16013KT 20/16 A3002 RMK A01 T02030159  RH  076%=      5-min Rain = 0
KCL2 141251Z 16013KT 20/16 A3002 RMK A01 T02040159  RH  075%=      5-min Rain = 0
KCL2 141252Z 16011KT 20/16 A3002 RMK A01 T02040159  RH  075%=      5-min Rain = 0
KCL2 141253Z 16012G17KT 20/16 A3002 RMK A01 T02030159  RH  076%=      5-min Rain = 0
KCL2 141254Z 17011KT 20/16 A3002 RMK A01 T02040159  RH  075%=      5-min Rain = 0
KCL2 141255Z 16012G18KT 20/16 A3002 RMK A01 T02030159  RH  076%=      5-min Rain = 0
KCL2 141256Z 17012G18KT 20/16 A3002 RMK A01 T02030159  RH  076%=      5-min Rain = 0
KCL2 141257Z 16013G18KT 20/16 A3002 RMK A01 T02030159  RH  076%=      5-min Rain = 0
KCL2 141258Z 17014KT 20/16 A3002 RMK A01 T02020159  RH  076%=      5-min Rain = 0
KCL2 141259Z 16014KT 20/16 A3002 RMK A01 T02020159  RH  076%=      5-min Rain = 0
KCL2 141300Z 17012KT 20/16 A3002 RMK A01 T02020159  RH  076%=      5-min Rain = 0
KCL2 141301Z 16012KT 20/16 A3002 RMK A01 T02020160  RH  077%=      5-min Rain = 0
KCL2 141302Z 17012KT 20/16 A3002 RMK A01 T02020160  RH  077%=      5-min Rain = 0
KCL2 141303Z 17013KT 20/16 A3002 RMK A01 T02020160  RH  077%=      5-min Rain = 0
KCL2 141304Z 16012KT 20/16 A3002 RMK A01 T02030160  RH  076%=      5-min Rain = 0
KCL2 141305Z 16014KT 20/16 A3002 RMK A01 T02030161  RH  077%=      5-min Rain = 0
KCL2 141306Z 16012KT 20/16 A3002 RMK A01 T02040162  RH  077%=      5-min Rain = 0
KCL2 141307Z 16013KT 21/16 A3002 RMK A01 T02050162  RH  077%=      5-min Rain = 0
KCL2 141308Z 17012KT 21/16 A3002 RMK A01 T02050163  RH  077%=      5-min Rain = 0
KCL2 141309Z 17014KT 21/16 A3001 RMK A01 T02060163  RH  076%=      5-min Rain = 0
KCL2 141310Z 17013KT 21/16 A3002 RMK A01 T02060164  RH  077%=      5-min Rain = 0
KCL2 141311Z 17013KT 21/16 A3002 RMK A01 T02060164  RH  076%=      5-min Rain = 0
KCL2 141312Z 17014KT 21/16 A3002 RMK A01 T02070163  RH  076%=      5-min Rain = 0
KCL2 141313Z 16011G16KT 21/16 A3002 RMK A01 T02070164  RH  076%=      5-min Rain = 0
KCL2 141314Z 17011KT 21/17 A3001 RMK A01 T02080165  RH  076%=      5-min Rain = 0
KCL2 141315Z 16016KT 21/17 A3001 RMK A01 T02080165  RH  076%=      5-min Rain = 0
KCL2 141316Z 17013KT 21/17 A3001 RMK A01 T02080165  RH  076%=      5-min Rain = 0
KCL2 141317Z 18013G18KT 21/17 A3001 RMK A01 T02080165  RH  077%=      5-min Rain = 0
KCL2 141318Z 17012KT 21/17 A3001 RMK A01 T02080166  RH  077%=      5-min Rain = 0
KCL2 141319Z 17011KT 21/17 A3001 RMK A01 T02080166  RH  077%=      5-min Rain = 0
KCL2 141320Z 17015KT 21/17 A3001 RMK A01 T02080166  RH  077%=      5-min Rain = 0
KCL2 141321Z 17014KT 21/17 A3001 RMK A01 T02080166  RH  077%=      5-min Rain = 0
KCL2 141322Z 17014G19KT 21/17 A3001 RMK A01 T02080166  RH  077%=      5-min Rain = 0
KCL2 141323Z 17014KT 21/17 A3001 RMK A01 T02080166  RH  077%=      5-min Rain = 0
KCL2 141324Z 17013KT 21/17 A3001 RMK A01 T02080166  RH  077%=      5-min Rain = 0
KCL2 141325Z 17014KT 21/17 A3001 RMK A01 T02080166  RH  077%=      5-min Rain = 0
KCL2 141326Z 17012KT 21/17 A3001 RMK A01 T02080167  RH  077%=      5-min Rain = 0
KCL2 141327Z 16012KT 21/17 A3001 RMK A01 T02080167  RH  077%=      5-min Rain = 0
KCL2 141328Z 16012KT 21/17 A3001 RMK A01 T02080167  RH  077%=      5-min Rain = 0
KCL2 141329Z 16011KT 21/17 A3001 RMK A01 T02090168  RH  078%=      5-min Rain = 0
KCL2 141330Z 17014KT 21/17 A3001 RMK A01 T02090168  RH  077%=      5-min Rain = 0
KCL2 141331Z 17012KT 21/17 A3001 RMK A01 T02090168  RH  077%=      5-min Rain = 0
KCL2 141332Z 17011KT 21/17 A3001 RMK A01 T02090168  RH  077%=      5-min Rain = 0
KCL2 141333Z 17010G15KT 21/17 A3001 RMK A01 T02090169  RH  078%=      5-min Rain = 0
KCL2 141334Z 16014KT 21/17 A3001 RMK A01 T02100168  RH  077%=      5-min Rain = 0
KCL2 141335Z 17013KT 21/17 A3001 RMK A01 T02090168  RH  077%=      5-min Rain = 0
KCL2 141336Z 17012G17KT 21/17 A3001 RMK A01 T02090169  RH  077%=      5-min Rain = 0
KCL2 141337Z 17011KT 21/17 A3001 RMK A01 T02090169  RH  078%=      5-min Rain = 0
KCL2 141338Z 16012G17KT 21/17 A3001 RMK A01 T02090169  RH  078%=      5-min Rain = 0
KCL2 141339Z 16014KT 21/17 A3001 RMK A01 T02100169  RH  078%=      5-min Rain = 0
KCL2 141340Z 17013KT 21/17 A3001 RMK A01 T02100169  RH  078%=      5-min Rain = 0
KCL2 141341Z 17015G20KT 21/17 A3001 RMK A01 T02110170  RH  077%=      5-min Rain = 0
KCL2 141342Z 17015KT 21/17 A3001 RMK A01 T02110170  RH  077%=      5-min Rain = 0
KCL2 141343Z 17011KT 21/17 A3001 RMK A01 T02130171  RH  077%=      5-min Rain = 0
KCL2 141344Z 17013KT 21/17 A3001 RMK A01 T02140172  RH  077%=      5-min Rain = 0
KCL2 141345Z 17014KT 22/17 A3001 RMK A01 T02150171  RH  076%=      5-min Rain = 0
KCL2 141346Z 17014KT 22/17 A3001 RMK A01 T02150171  RH  076%=      5-min Rain = 0
KCL2 141347Z 17010KT 22/17 A3001 RMK A01 T02150172  RH  076%=      5-min Rain = 0
KCL2 141348Z 18012G17KT 22/17 A3001 RMK A01 T02160173  RH  076%=      5-min Rain = 0
KCL2 141349Z 18014KT 22/17 A3001 RMK A01 T02170173  RH  076%=      5-min Rain = 0
KCL2 141350Z 18011KT 22/17 A3001 RMK A01 T02170174  RH  077%=      5-min Rain = 0
KCL2 141351Z 17011KT 22/17 A3001 RMK A01 T02170173  RH  076%=      5-min Rain = 0
KCL2 141352Z 18010KT 22/17 A3001 RMK A01 T02170174  RH  077%=      5-min Rain = 0
KCL2 141353Z 18010KT 22/17 A3001 RMK A01 T02160174  RH  077%=      5-min Rain = 0
KCL2 141354Z 18015KT 22/17 A3001 RMK A01 T02160173  RH  077%=      5-min Rain = 0
KCL2 141355Z 18012KT 21/17 A3001 RMK A01 T02140172  RH  077%=      5-min Rain = 0
KCL2 141356Z 18015KT 21/17 A3001 RMK A01 T02140173  RH  077%=      5-min Rain = 0
KCL2 141357Z 18011KT 21/17 A3001 RMK A01 T02140173  RH  077%=      5-min Rain = 0
KCL2 141358Z 17012G17KT 22/17 A3001 RMK A01 T02150173  RH  077%=      5-min Rain = 0
KCL2 141359Z 17014KT 22/17 A3001 RMK A01 T02150173  RH  077%=      5-min Rain = 0
KCL2 141400Z 17012KT 22/17 A3001 RMK A01 T02150174  RH  077%=      5-min Rain = 0
KCL2 141401Z 18012G17KT 22/17 A30 RMK A01 T02160174  RH  077%=      5-min Rain = 0
KCL2 141402Z 17013G18KT 22/17 A30 RMK A01 T02170174  RH  077%=      5-min Rain = 0
KCL2 141403Z 18015KT 22/18 A30 RMK A01 T02170175  RH  077%=      5-min Rain = 0
KCL2 141404Z 17012KT 22/18 A30 RMK A01 T02180175  RH  077%=      5-min Rain = 0
KCL2 141405Z 17011KT 22/18 A30 RMK A01 T02190176  RH  076%=      5-min Rain = 0
KCL2 141406Z 17016KT 22/18 A30 RMK A01 T02200176  RH  076%=      5-min Rain = 0
KCL2 141407Z 18016KT 22/18 A30 RMK A01 T02200175  RH  076%=      5-min Rain = 0
KCL2 141408Z 18013KT 22/18 A30 RMK A01 T02190176  RH  077%=      5-min Rain = 0
KCL2 141409Z 18012KT 22/18 A30 RMK A01 T02190176  RH  077%=      5-min Rain = 0
KCL2 141410Z 17013G18KT 22/18 A30 RMK A01 T02200177  RH  077%=      5-min Rain = 0
KCL2 141411Z 18014KT 22/18 A30 RMK A01 T02210177  RH  076%=      5-min Rain = 0
KCL2 141412Z 18011KT 22/18 A30 RMK A01 T02220178  RH  076%=      5-min Rain = 0
KCL2 141413Z 18014KT 22/18 A30 RMK A01 T02230179  RH  076%=      5-min Rain = 0
KCL2 141414Z 18016KT 22/18 A30 RMK A01 T02240178  RH  075%=      5-min Rain = 0
KCL2 141415Z 18015KT 22/18 A30 RMK A01 T02230178  RH  076%=      5-min Rain = 0
KCL2 141416Z 18015G23KT 22/18 A30 RMK A01 T02240178  RH  075%=      5-min Rain = 0
KCL2 141417Z 18017G22KT 23/18 A30 RMK A01 T02250178  RH  075%=      5-min Rain = 0
KCL2 141418Z 18012KT 23/18 A30 RMK A01 T02260179  RH  075%=      5-min Rain = 0
KCL2 141419Z 17013KT 23/18 A30 RMK A01 T02270180  RH  074%=      5-min Rain = 0
KCL2 141420Z 18015KT 23/18 A30 RMK A01 T02290180  RH  074%=      5-min Rain = 0
KCL2 141421Z 17013KT 23/18 A30 RMK A01 T02300181  RH  074%=      5-min Rain = 0
KCL2 141422Z 17015KT 23/18 A30 RMK A01 T02310180  RH  073%=      5-min Rain = 0
KCL2 141423Z 17013KT 23/18 A30 RMK A01 T02320180  RH  073%=      5-min Rain = 0
KCL2 141424Z 17017KT 23/18 A2999 RMK A01 T02310180  RH  073%=      5-min Rain = 0
KCL2 141425Z 17017G22KT 23/18 A2999 RMK A01 T02290178  RH  073%=      5-min Rain = 0
KCL2 141426Z 18017G22KT 23/18 A2999 RMK A01 T02280178  RH  073%=      5-min Rain = 0
KCL2 141427Z 17020G25KT 23/18 A2999 RMK A01 T02260177  RH  074%=      5-min Rain = 0
KCL2 141428Z 18017G23KT 23/18 A2999 RMK A01 T02260176  RH  074%=      5-min Rain = 0
KCL2 141429Z 18015G21KT 23/18 A30 RMK A01 T02260177  RH  074%=      5-min Rain = 0
KCL2 141430Z 18015KT 23/18 A30 RMK A01 T02270177  RH  073%=      5-min Rain = 0
KCL2 141431Z 17016KT 23/18 A2999 RMK A01 T02290178  RH  073%=      5-min Rain = 0
KCL2 141432Z 18016G21KT 23/18 A2999 RMK A01 T02300178  RH  073%=      5-min Rain = 0
KCL2 141433Z 18019G24KT 23/18 A2999 RMK A01 T02320176  RH  071%=      5-min Rain = 0
KCL2 141434Z 18017G22KT 23/18 A2999 RMK A01 T02320177  RH  071%=      5-min Rain = 0
KCL2 141435Z 19019G24KT 23/18 A2999 RMK A01 T02320177  RH  071%=      5-min Rain = 0
KCL2 141436Z 19020KT 23/18 A2999 RMK A01 T02330175  RH  070%=      5-min Rain = 0
KCL2 141437Z 18016G21KT 23/18 A2999 RMK A01 T02330176  RH  070%=      5-min Rain = 0
KCL2 141438Z 18016G21KT 23/18 A2999 RMK A01 T02320177  RH  071%=      5-min Rain = 0
KCL2 141439Z 19015G20KT 23/18 A2999 RMK A01 T02330178  RH  071%=      5-min Rain = 0
KCL2 141440Z 18015G21KT 23/18 A2999 RMK A01 T02320178  RH  072%=      5-min Rain = 0
KCL2 141441Z 18017KT 23/18 A2999 RMK A01 T02330179  RH  071%=      5-min Rain = 0
KCL2 141442Z 18017KT 24/18 A2999 RMK A01 T02350178  RH  070%=      5-min Rain = 0
KCL2 141443Z 18017G22KT 24/18 A2999 RMK A01 T02360178  RH  070%=      5-min Rain = 0
KCL2 141444Z 18017KT 24/18 A2999 RMK A01 T02360178  RH  070%=      5-min Rain = 0
KCL2 141445Z 18017KT 24/18 A2999 RMK A01 T02370179  RH  070%=      5-min Rain = 0
KCL2 141446Z 18014G20KT 24/18 A2999 RMK A01 T02380180  RH  070%=      5-min Rain = 0
KCL2 141447Z 18017KT 24/18 A2999 RMK A01 T02400179  RH  069%=      5-min Rain = 0
KCL2 141448Z 19014KT 24/18 A2999 RMK A01 T02400180  RH  069%=      5-min Rain = 0
KCL2 141449Z 18017G22KT 24/18 A2999 RMK A01 T02400181  RH  069%=      5-min Rain = 0
KCL2 141450Z 18017KT 24/18 A2999 RMK A01 T02410179  RH  068%=      5-min Rain = 0
KCL2 141451Z 19014G19KT 24/18 A2999 RMK A01 T02400180  RH  069%=      5-min Rain = 0
KCL2 141452Z 19018G25KT 24/18 A2999 RMK A01 T02400179  RH  069%=      5-min Rain = 0
KCL2 141453Z 18020G25KT 24/18 A2999 RMK A01 T02410177  RH  067%=      5-min Rain = 0
KCL2 141454Z 18017KT 24/18 A2999 RMK A01 T02400177  RH  068%=      5-min Rain = 0
KCL2 141455Z 18017KT 24/18 A2999 RMK A01 T02390179  RH  069%=      5-min Rain = 0
KCL2 141456Z 18014G19KT 24/18 A2999 RMK A01 T02410180  RH  069%=      5-min Rain = 0
KCL2 141457Z 18018G23KT 24/18 A2999 RMK A01 T02420178  RH  068%=      5-min Rain = 0
KCL2 141458Z 19019KT 24/18 A2999 RMK A01 T02430177  RH  067%=      5-min Rain = 0
KCL2 141459Z 19019G24KT 24/18 A2999 RMK A01 T02430177  RH  066%=      5-min Rain = 0
KCL2 141500Z 19019KT 24/18 A2999 RMK A01 T02430176  RH  066%=      5-min Rain = 0
KCL2 141501Z 19018KT 24/18 A2999 RMK A01 T02430177  RH  066%=      5-min Rain = 0
KCL2 141502Z 19015KT 24/18 A2999 RMK A01 T02440179  RH  067%=      5-min Rain = 0
KCL2 141503Z 18016KT 25/18 A2999 RMK A01 T02450179  RH  067%=      5-min Rain = 0
KCL2 141504Z 18020KT 25/18 A2999 RMK A01 T02460176  RH  065%=      5-min Rain = 0
KCL2 141505Z 18018KT 25/18 A2999 RMK A01 T02450176  RH  065%=      5-min Rain = 0
KCL2 141506Z 18020KT 25/18 A2999 RMK A01 T02450176  RH  065%=      5-min Rain = 0
KCL2 141507Z 19018KT 25/18 A2999 RMK A01 T02450175  RH  065%=      5-min Rain = 0
KCL2 141508Z 19016G22KT 25/18 A2999 RMK A01 T02450176  RH  066%=      5-min Rain = 0
KCL2 141509Z 18019KT 25/18 A2999 RMK A01 T02470177  RH  065%=      5-min Rain = 0
KCL2 141510Z 18017KT 25/18 A2999 RMK A01 T02460177  RH  065%=      5-min Rain = 0
KCL2 141511Z 19016G21KT 25/18 A2999 RMK A01 T02460178  RH  066%=      5-min Rain = 0
KCL2 141512Z 19018G23KT 25/18 A2999 RMK A01 T02480178  RH  065%=      5-min Rain = 0
KCL2 141513Z 19020KT 25/18 A2999 RMK A01 T02480177  RH  065%=      5-min Rain = 0
KCL2 141514Z 20019KT 25/18 A2999 RMK A01 T02470178  RH  065%=      5-min Rain = 0
KCL2 141515Z 19019KT 25/18 A2999 RMK A01 T02460177  RH  065%=      5-min Rain = 0
KCL2 141516Z 18019KT 25/18 A2999 RMK A01 T02450176  RH  065%=      5-min Rain = 0
KCL2 141517Z 18014G20KT 25/18 A2999 RMK A01 T02450178  RH  066%=      5-min Rain = 0
KCL2 141518Z 19019G25KT 25/18 A2999 RMK A01 T02460178  RH  066%=      5-min Rain = 0
KCL2 141519Z 19019KT 25/18 A2999 RMK A01 T02460177  RH  066%=      5-min Rain = 0
KCL2 141520Z 19016KT 25/18 A2999 RMK A01 T02450178  RH  066%=      5-min Rain = 0
KCL2 141521Z 18016KT 25/18 A2999 RMK A01 T02460180  RH  067%=      5-min Rain = 0
KCL2 141522Z 18015KT 25/18 A2999 RMK A01 T02480180  RH  066%=      5-min Rain = 0
KCL2 141523Z 19013KT 25/18 A2999 RMK A01 T02490184  RH  067%=      5-min Rain = 0
KCL2 141524Z 19018G23KT 25/18 A2999 RMK A01 T02530183  RH  065%=      5-min Rain = 0
KCL2 141525Z 19019G25KT 25/18 A2999 RMK A01 T02530181  RH  064%=      5-min Rain = 0
KCL2 141526Z 19015G20KT 25/18 A2999 RMK A01 T02520181  RH  065%=      5-min Rain = 0
KCL2 141527Z 18012G17KT 25/19 A2999 RMK A01 T02530185  RH  066%=      5-min Rain = 0
KCL2 141528Z 19020KT 26/18 A2999 RMK A01 T02560182  RH  064%=      5-min Rain = 0
KCL2 141529Z 18019G25KT 26/18 A2999 RMK A01 T02560181  RH  063%=      5-min Rain = 0
KCL2 141530Z 18020KT 26/18 A2999 RMK A01 T02550180  RH  063%=      5-min Rain = 0
KCL2 141531Z 18022G28KT 25/18 A2999 RMK A01 T02540180  RH  063%=      5-min Rain = 0
KCL2 141532Z 19020G26KT 25/18 A2999 RMK A01 T02540178  RH  063%=      5-min Rain = 0
KCL2 141533Z 19018G25KT 25/18 A2999 RMK A01 T02530179  RH  063%=      5-min Rain = 0
KCL2 141534Z 19019G24KT 25/18 A2999 RMK A01 T02530179  RH  064%=      5-min Rain = 0
KCL2 141535Z 20017G25KT 25/18 A2998 RMK A01 T02520179  RH  064%=      5-min Rain = 0
KCL2 141536Z 20017KT 25/18 A2999 RMK A01 T02520182  RH  065%=      5-min Rain = 0
KCL2 141537Z 19013G19KT 25/18 A2999 RMK A01 T02530181  RH  064%=      5-min Rain = 0
KCL2 141538Z 18014G21KT 25/18 A2999 RMK A01 T02540183  RH  065%=      5-min Rain = 0
KCL2 141539Z 18018G24KT 26/18 A2999 RMK A01 T02560183  RH  064%=      5-min Rain = 0
KCL2 141540Z 18017G22KT 26/18 A2999 RMK A01 T02560180  RH  063%=      5-min Rain = 0
KCL2 141541Z 19017G24KT 25/18 A2999 RMK A01 T02540181  RH  064%=      5-min Rain = 0
KCL2 141542Z 20021KT 25/18 A2999 RMK A01 T02540181  RH  064%=      5-min Rain = 0
KCL2 141543Z 19018KT 26/18 A2999 RMK A01 T02550181  RH  063%=      5-min Rain = 0
KCL2 141544Z 20018G23KT 26/18 A2999 RMK A01 T02550181  RH  064%=      5-min Rain = 0
KCL2 141545Z 19013KT 26/18 A2999 RMK A01 T02560184  RH  065%=      5-min Rain = 0
KCL2 141546Z 19015G21KT 26/19 A2999 RMK A01 T02590186  RH  064%=      5-min Rain = 0
KCL2 141547Z 19017KT 26/18 A2999 RMK A01 T02610184  RH  063%=      5-min Rain = 0
KCL2 141548Z 19012KT 26/19 A2999 RMK A01 T02610185  RH  063%=      5-min Rain = 0
KCL2 141549Z 19017KT 26/19 A2999 RMK A01 T02630185  RH  062%=      5-min Rain = 0
KCL2 141550Z 19020G26KT 26/18 A2999 RMK A01 T02630183  RH  062%=      5-min Rain = 0
KCL2 141551Z 20018G23KT 26/18 A2999 RMK A01 T02610182  RH  062%=      5-min Rain = 0
KCL2 141552Z 18019KT 26/18 A2999 RMK A01 T02620182  RH  062%=      5-min Rain = 0
KCL2 141553Z 18020KT 26/18 A2999 RMK A01 T02620182  RH  061%=      5-min Rain = 0
KCL2 141554Z 19019KT 26/18 A2998 RMK A01 T02620182  RH  061%=      5-min Rain = 0
KCL2 141555Z 19019G25KT 26/18 A2998 RMK A01 T02620181  RH  061%=      5-min Rain = 0
KCL2 141556Z 20019KT 26/18 A2998 RMK A01 T02620182  RH  061%=      5-min Rain = 0
KCL2 141557Z 19017G22KT 26/18 A2998 RMK A01 T02620182  RH  061%=      5-min Rain = 0
KCL2 141558Z 20019KT 26/18 A2998 RMK A01 T02640183  RH  061%=      5-min Rain = 0
KCL2 141559Z 20016KT 26/18 A2998 RMK A01 T02640184  RH  061%=      5-min Rain = 0
KCL2 141600Z 20018KT 27/19 A2998 RMK A01 T02670185  RH  061%=      5-min Rain = 0
KCL2 141601Z 19020KT 27/18 A2998 RMK A01 T02680184  RH  060%=      5-min Rain = 0
KCL2 141602Z 20021KT 27/18 A2998 RMK A01 T02670182  RH  059%=      5-min Rain = 0
KCL2 141603Z 19023KT 27/18 A2998 RMK A01 T02660182  RH  060%=      5-min Rain = 0
KCL2 141604Z 19018G24KT 27/18 A2998 RMK A01 T02650182  RH  060%=      5-min Rain = 0
KCL2 141605Z 20021G26KT 27/18 A2998 RMK A01 T02650183  RH  061%=      5-min Rain = 0
KCL2 141606Z 20021KT 27/18 A2998 RMK A01 T02660183  RH  060%=      5-min Rain = 0
KCL2 141607Z 19021KT 27/18 A2998 RMK A01 T02670183  RH  060%=      5-min Rain = 0
KCL2 141608Z 19016G22KT 27/19 A2998 RMK A01 T02670186  RH  061%=      5-min Rain = 0
KCL2 141609Z 19020KT 27/19 A2998 RMK A01 T02690185  RH  060%=      5-min Rain = 0
KCL2 141610Z 19019KT 27/19 A2998 RMK A01 T02680185  RH  060%=      5-min Rain = 0
KCL2 141611Z 19018G24KT 27/19 A2998 RMK A01 T02680186  RH  061%=      5-min Rain = 0
KCL2 141612Z 19017KT 27/19 A2998 RMK A01 T02690185  RH  060%=      5-min Rain = 0
KCL2 141613Z 19016G22KT 27/19 A2998 RMK A01 T02700187  RH  060%=      5-min Rain = 0
KCL2 141614Z 19017KT 27/19 A2998 RMK A01 T02720187  RH  060%=      5-min Rain = 0
KCL2 141615Z 18015G20KT 27/19 A2998 RMK A01 T02730188  RH  060%=      5-min Rain = 0
KCL2 141616Z 19019KT 27/19 A2998 RMK A01 T02730186  RH  059%=      5-min Rain = 0
KCL2 141617Z 19020G26KT 27/19 A2998 RMK A01 T02720185  RH  059%=      5-min Rain = 0
KCL2 141618Z 19016KT 27/19 A2998 RMK A01 T02720186  RH  060%=      5-min Rain = 0
KCL2 141619Z 19016KT 27/19 A2998 RMK A01 T02720186  RH  060%=      5-min Rain = 0
KCL2 141620Z 19013KT 27/19 A2998 RMK A01 T02720190  RH  061%=      5-min Rain = 0
KCL2 141621Z 18018G23KT 28/19 A2998 RMK A01 T02750188  RH  059%=      5-min Rain = 0
KCL2 141622Z 19016KT 27/19 A2998 RMK A01 T02740187  RH  059%=      5-min Rain = 0
KCL2 141623Z 19014G20KT 27/19 A2998 RMK A01 T02720189  RH  060%=      5-min Rain = 0
KCL2 141624Z 19016KT 27/19 A2998 RMK A01 T02730189  RH  060%=      5-min Rain = 0
KCL2 141625Z 19018KT 27/19 A2998 RMK A01 T02730187  RH  059%=      5-min Rain = 0
KCL2 141626Z 20021G26KT 27/19 A2997 RMK A01 T02720186  RH  059%=      5-min Rain = 0
KCL2 141627Z 18016G22KT 27/19 A2997 RMK A01 T02710185  RH  059%=      5-min Rain = 0
KCL2 141628Z 19021G27KT 27/19 A2997 RMK A01 T02710185  RH  059%=      5-min Rain = 0
KCL2 141629Z 18020KT 27/19 A2997 RMK A01 T02720185  RH  059%=      5-min Rain = 0
KCL2 141630Z 18020G25KT 27/18 A2997 RMK A01 T02710184  RH  059%=      5-min Rain = 0
KCL2 141631Z 19021KT 27/18 A2997 RMK A01 T02720183  RH  058%=      5-min Rain = 0
KCL2 141632Z 19019G24KT 27/19 A2997 RMK A01 T02720185  RH  059%=      5-min Rain = 0
KCL2 141633Z 20017KT 27/19 A2997 RMK A01 T02720186  RH  059%=      5-min Rain = 0
KCL2 141634Z 19017G24KT 27/19 A2997 RMK A01 T02730188  RH  060%=      5-min Rain = 0
KCL2 141635Z 18015KT 28/19 A2997 RMK A01 T02750188  RH  059%=      5-min Rain = 0
KCL2 141636Z 18018G24KT 28/19 A2997 RMK A01 T02770188  RH  059%=      5-min Rain = 0
KCL2 141637Z 18020KT 28/19 A2997 RMK A01 T02760186  RH  058%=      5-min Rain = 0
KCL2 141638Z 18015G20KT 28/19 A2997 RMK A01 T02750187  RH  059%=      5-min Rain = 0
KCL2 141639Z 18019G24KT 28/19 A2997 RMK A01 T02750187  RH  059%=      5-min Rain = 0
KCL2 141640Z 18018G24KT 28/18 A2997 RMK A01 T02750184  RH  058%=      5-min Rain = 0
KCL2 141641Z 18013G18KT 28/19 A2997 RMK A01 T02760187  RH  058%=      5-min Rain = 0
KCL2 141642Z 18016KT 28/19 A2997 RMK A01 T02780188  RH  058%=      5-min Rain = 0
KCL2 141643Z 18017G22KT 28/19 A2997 RMK A01 T02790188  RH  058%=      5-min Rain = 0
KCL2 141644Z 18018KT 28/19 A2997 RMK A01 T02780188  RH  058%=      5-min Rain = 0
KCL2 141645Z 18019KT 28/19 A2997 RMK A01 T02760186  RH  058%=      5-min Rain = 0
KCL2 141646Z 18020G25KT 27/19 A2997 RMK A01 T02730185  RH  058%=      5-min Rain = 0
KCL2 141647Z 18016G24KT 27/18 A2997 RMK A01 T02710183  RH  059%=      5-min Rain = 0
KCL2 141648Z 18017G24KT 27/19 A2997 RMK A01 T02710186  RH  060%=      5-min Rain = 0
KCL2 141649Z 18016G22KT 27/19 A2997 RMK A01 T02710185  RH  059%=      5-min Rain = 0
KCL2 141650Z 18015G20KT 27/18 A2997 RMK A01 T02710184  RH  059%=      5-min Rain = 0
KCL2 141651Z 18017G22KT 27/19 A2997 RMK A01 T02720185  RH  059%=      5-min Rain = 0
KCL2 141652Z 18015G22KT 27/19 A2997 RMK A01 T02720185  RH  059%=      5-min Rain = 0
KCL2 141653Z 18017KT 27/19 A2997 RMK A01 T02720185  RH  059%=      5-min Rain = 0
KCL2 141654Z 19013KT 27/19 A2997 RMK A01 T02730186  RH  059%=      5-min Rain = 0
KCL2 141655Z 19016G23KT 27/19 A2997 RMK A01 T02740186  RH  059%=      5-min Rain = 0
KCL2 141656Z 19019KT 28/18 A2997 RMK A01 T02750180  RH  056%=      5-min Rain = 0
KCL2 141657Z 19021G28KT 28/18 A2997 RMK A01 T02760182  RH  057%=      5-min Rain = 0
KCL2 141658Z 19019G25KT 28/18 A2997 RMK A01 T02750179  RH  056%=      5-min Rain = 0
KCL2 141659Z 19019KT 27/18 A2997 RMK A01 T02730180  RH  057%=      5-min Rain = 0
KCL2 141700Z 19018G24KT 27/18 A2997 RMK A01 T02730179  RH  057%=      5-min Rain = 0
KCL2 141701Z 19020KT 27/18 A2997 RMK A01 T02720179  RH  057%=      5-min Rain = 0
KCL2 141702Z 19014G19KT 27/18 A2997 RMK A01 T02710181  RH  058%=      5-min Rain = 0
KCL2 141703Z 20015KT 27/18 A2997 RMK A01 T02720182  RH  058%=      5-min Rain = 0
KCL2 141704Z 20018KT 27/18 A2997 RMK A01 T02730183  RH  058%=      5-min Rain = 0
KCL2 141705Z 20016G21KT 27/18 A2997 RMK A01 T02730182  RH  057%=      5-min Rain = 0
KCL2 141706Z 20016G25KT 27/18 A2997 RMK A01 T02730183  RH  058%=      5-min Rain = 0
KCL2 141707Z 20020KT 27/18 A2997 RMK A01 T02730182  RH  058%=      5-min Rain = 0
KCL2 141708Z 20019KT 27/18 A2997 RMK A01 T02740181  RH  057%=      5-min Rain = 0
KCL2 141709Z 20015G20KT 27/18 A2997 RMK A01 T02740182  RH  057%=      5-min Rain = 0
KCL2 141710Z 19015KT 27/18 A2997 RMK A01 T02740184  RH  058%=      5-min Rain = 0
KCL2 141711Z 19017KT 28/18 A2997 RMK A01 T02760183  RH  057%=      5-min Rain = 0
KCL2 141712Z 18014KT 28/19 A2997 RMK A01 T02780187  RH  058%=      5-min Rain = 0
KCL2 141713Z 18016KT 28/19 A2997 RMK A01 T02810188  RH  057%=      5-min Rain = 0
KCL2 141714Z 19016KT 28/19 A2996 RMK A01 T02810186  RH  056%=      5-min Rain = 0
KCL2 141715Z 19012KT 28/19 A2997 RMK A01 T02810189  RH  057%=      5-min Rain = 0
KCL2 141716Z 20016KT 28/19 A2997 RMK A01 T02830188  RH  056%=      5-min Rain = 0
KCL2 141717Z 19016KT 28/19 A2997 RMK A01 T02830185  RH  055%=      5-min Rain = 0
KCL2 141718Z 20021KT 28/18 A2996 RMK A01 T02800182  RH  055%=      5-min Rain = 0
KCL2 141719Z 20017G22KT 28/18 A2996 RMK A01 T02770182  RH  056%=      5-min Rain = 0
KCL2 141720Z 20018G23KT 28/18 A2996 RMK A01 T02760183  RH  057%=      5-min Rain = 0
KCL2 141721Z 19019KT 28/18 A2996 RMK A01 T02750182  RH  057%=      5-min Rain = 0
KCL2 141722Z 20019G24KT 27/18 A2996 RMK A01 T02740181  RH  057%=      5-min Rain = 0
KCL2 141723Z 20018KT 27/18 A2996 RMK A01 T02730181  RH  057%=      5-min Rain = 0
KCL2 141724Z 19020G26KT 27/18 A2996 RMK A01 T02720181  RH  057%=      5-min Rain = 0
KCL2 141725Z 19019G25KT 27/18 A2996 RMK A01 T02730182  RH  058%=      5-min Rain = 0
KCL2 141726Z 20019G25KT 27/18 A2997 RMK A01 T02730183  RH  058%=      5-min Rain = 0
KCL2 141727Z 19019G26KT 27/18 A2996 RMK A01 T02740182  RH  057%=      5-min Rain = 0
KCL2 141728Z 19022KT 27/18 A2996 RMK A01 T02730180  RH  057%=      5-min Rain = 0
KCL2 141729Z 19021G28KT 27/18 A2996 RMK A01 T02740181  RH  057%=      5-min Rain = 0
KCL2 141730Z 20023G28KT 27/18 A2996 RMK A01 T02740180  RH  056%=      5-min Rain = 0
KCL2 141731Z 19023G30KT 27/18 A2996 RMK A01 T02740180  RH  057%=      5-min Rain = 0
KCL2 141732Z 18021G26KT 27/18 A2996 RMK A01 T02740180  RH  056%=      5-min Rain = 0
KCL2 141733Z 19020G26KT 28/18 A2996 RMK A01 T02750180  RH  056%=      5-min Rain = 0
KCL2 141734Z 19017KT 28/18 A2996 RMK A01 T02750181  RH  056%=      5-min Rain = 0
KCL2 141735Z 18017G22KT 28/18 A2996 RMK A01 T02770183  RH  057%=      5-min Rain = 0
KCL2 141736Z 18022KT 28/18 A2996 RMK A01 T02780183  RH  056%=      5-min Rain = 0
KCL2 141737Z 19019G25KT 28/18 A2996 RMK A01 T02790182  RH  056%=      5-min Rain = 0
KCL2 141738Z 19017G23KT 28/18 A2996 RMK A01 T02790184  RH  056%=      5-min Rain = 0
KCL2 141739Z 20020G27KT 28/18 A2995 RMK A01 T02800184  RH  056%=      5-min Rain = 0
KCL2 141740Z 20017G22KT 28/19 A2995 RMK A01 T02820185  RH  056%=      5-min Rain = 0
KCL2 141741Z 19017KT 28/19 A2995 RMK A01 T02830186  RH  056%=      5-min Rain = 0
KCL2 141742Z 19015KT 29/19 A2995 RMK A01 T02850188  RH  056%=      5-min Rain = 0
KCL2 141743Z 18014KT 29/19 A2995 RMK A01 T02860190  RH  056%=      5-min Rain = 0
KCL2 141744Z 18016G24KT 29/19 A2995 RMK A01 T02870190  RH  056%=      5-min Rain = 0
KCL2 141745Z 18015G22KT 29/19 A2995 RMK A01 T02880188  RH  055%=      5-min Rain = 0
KCL2 141746Z 20018G24KT 29/19 A2995 RMK A01 T02890191  RH  055%=      5-min Rain = 0
KCL2 141747Z 19016G21KT 29/19 A2995 RMK A01 T02910188  RH  054%=      5-min Rain = 0
KCL2 141748Z 20015KT 29/19 A2996 RMK A01 T02910190  RH  054%=      5-min Rain = 0
KCL2 141749Z 18014KT 29/19 A2996 RMK A01 T02910191  RH  055%=      5-min Rain = 0
KCL2 141750Z 19016KT 29/19 A2995 RMK A01 T02900187  RH  054%=      5-min Rain = 0
KCL2 141751Z 18019KT 29/19 A2995 RMK A01 T02870186  RH  054%=      5-min Rain = 0
KCL2 141752Z 18019G24KT 28/19 A2995 RMK A01 T02840185  RH  055%=      5-min Rain = 0
KCL2 141753Z 19019KT 28/18 A2995 RMK A01 T02830184  RH  055%=      5-min Rain = 0
KCL2 141754Z 19016KT 28/19 A2995 RMK A01 T02820185  RH  056%=      5-min Rain = 0
KCL2 141755Z 19015G22KT 28/19 A2996 RMK A01 T02830186  RH  056%=      5-min Rain = 0
KCL2 141756Z 19020KT 28/18 A2995 RMK A01 T02830184  RH  055%=      5-min Rain = 0
KCL2 141757Z 19014KT 28/19 A2996 RMK A01 T02830185  RH  055%=      5-min Rain = 0
KCL2 141758Z 18014KT 28/19 A2996 RMK A01 T02840187  RH  056%=      5-min Rain = 0
KCL2 141759Z 18016KT 29/19 A2995 RMK A01 T02850185  RH  055%=      5-min Rain = 0
KCL2 141800Z 18018KT 28/18 A2995 RMK A01 T02840183  RH  054%=      5-min Rain = 0
KCL2 141801Z 19014KT 28/19 A2995 RMK A01 T02830185  RH  055%=      5-min Rain = 0
KCL2 141802Z 19016KT 28/18 A2995 RMK A01 T02840184  RH  055%=      5-min Rain = 0
KCL2 141803Z 18014KT 29/19 A2995 RMK A01 T02860187  RH  055%=      5-min Rain = 0
KCL2 141804Z 19015KT 29/19 A2995 RMK A01 T02900189  RH  054%=      5-min Rain = 0
KCL2 141805Z 19017KT 29/19 A2995 RMK A01 T02920188  RH  053%=      5-min Rain = 0
KCL2 141806Z 19018G23KT 29/19 A2995 RMK A01 T02930187  RH  053%=      5-min Rain = 0
KCL2 141807Z 18019KT 29/18 A2995 RMK A01 T02920184  RH  052%=      5-min Rain = 0
KCL2 141808Z 18018KT 29/19 A2995 RMK A01 T02920186  RH  053%=      5-min Rain = 0
KCL2 141809Z 19019KT 29/18 A2995 RMK A01 T02910184  RH  052%=      5-min Rain = 0
KCL2 141810Z 19018KT 29/19 A2995 RMK A01 T02920186  RH  053%=      5-min Rain = 0
KCL2 141811Z 20017G22KT 29/19 A2995 RMK A01 T02920186  RH  053%=      5-min Rain = 0
KCL2 141812Z 19018KT 29/18 A2995 RMK A01 T02910183  RH  052%=      5-min Rain = 0
KCL2 141813Z 19016KT 29/19 A2995 RMK A01 T02890185  RH  054%=      5-min Rain = 0
KCL2 141814Z 18015KT 29/18 A2995 RMK A01 T02890184  RH  053%=      5-min Rain = 0
KCL2 141815Z 18018KT 29/18 A2995 RMK A01 T02870184  RH  054%=      5-min Rain = 0
KCL2 141816Z 18018G24KT 29/18 A2995 RMK A01 T02870183  RH  053%=      5-min Rain = 0
KCL2 141817Z 18019KT 29/18 A2995 RMK A01 T02860181  RH  053%=      5-min Rain = 0
KCL2 141818Z 18019G25KT 29/18 A2995 RMK A01 T02850181  RH  053%=      5-min Rain = 0
KCL2 141819Z 19021KT 28/18 A2995 RMK A01 T02840181  RH  054%=      5-min Rain = 0
KCL2 141820Z 19020G25KT 28/18 A2995 RMK A01 T02840180  RH  054%=      5-min Rain = 0
KCL2 141821Z 19020KT 28/18 A2995 RMK A01 T02830180  RH  054%=      5-min Rain = 0
KCL2 141822Z 19018KT 28/18 A2995 RMK A01 T02830181  RH  054%=      5-min Rain = 0
KCL2 141823Z 19017KT 28/18 A2995 RMK A01 T02830182  RH  054%=      5-min Rain = 0
KCL2 141824Z 19017G23KT 28/18 A2995 RMK A01 T02830182  RH  054%=      5-min Rain = 0
KCL2 141825Z 19017KT 28/18 A2995 RMK A01 T02830181  RH  054%=      5-min Rain = 0
KCL2 141826Z 19016KT 28/18 A2995 RMK A01 T02840183  RH  054%=      5-min Rain = 0
KCL2 141827Z 19020KT 29/18 A2995 RMK A01 T02870184  RH  054%=      5-min Rain = 0
KCL2 141828Z 19016G22KT 29/19 A2995 RMK A01 T02890185  RH  053%=      5-min Rain = 0
KCL2 141829Z 19015G21KT 29/19 A2995 RMK A01 T02920188  RH  053%=      5-min Rain = 0
KCL2 141830Z 19017KT 29/19 A2995 RMK A01 T02940185  RH  052%=      5-min Rain = 0
KCL2 141831Z 18017KT 29/19 A2995 RMK A01 T02940185  RH  052%=      5-min Rain = 0
KCL2 141832Z 19018G26KT 30/19 A2995 RMK A01 T02950185  RH  052%=      5-min Rain = 0
KCL2 141833Z 20019KT 30/18 A2994 RMK A01 T02950183  RH  051%=      5-min Rain = 0
KCL2 141834Z 19020KT 30/18 A2994 RMK A01 T02950184  RH  051%=      5-min Rain = 0
KCL2 141835Z 20018KT 30/18 A2995 RMK A01 T02950183  RH  051%=      5-min Rain = 0
KCL2 141836Z 19020G25KT 30/19 A2994 RMK A01 T02950185  RH  051%=      5-min Rain = 0
KCL2 141837Z 19021KT 30/18 A2994 RMK A01 T02970184  RH  051%=      5-min Rain = 0
KCL2 141838Z 19015KT 30/19 A2995 RMK A01 T02980188  RH  052%=      5-min Rain = 0
KCL2 141839Z 19012KT 30/19 A2995 RMK A01 T03010192  RH  052%=      5-min Rain = 0
KCL2 141840Z 18015KT 31/19 A2994 RMK A01 T03050194  RH  052%=      5-min Rain = 0
KCL2 141841Z 19016KT 31/19 A2994 RMK A01 T03060188  RH  049%=      5-min Rain = 0
KCL2 141842Z 19018G24KT 30/19 A2994 RMK A01 T03040187  RH  050%=      5-min Rain = 0
KCL2 141843Z 20023KT 30/19 A2994 RMK A01 T03030185  RH  049%=      5-min Rain = 0
KCL2 141844Z 20017G22KT 30/19 A2994 RMK A01 T03020187  RH  050%=      5-min Rain = 0
KCL2 141845Z 21017KT 30/19 A2994 RMK A01 T03030187  RH  050%=      5-min Rain = 0
KCL2 141846Z 20014KT 30/19 A2994 RMK A01 T03040190  RH  051%=      5-min Rain = 0
KCL2 141847Z 20014G19KT 31/19 A2994 RMK A01 T03060191  RH  050%=      5-min Rain = 0
KCL2 141848Z 20021G26KT 31/19 A2994 RMK A01 T03080189  RH  049%=      5-min Rain = 0
KCL2 141849Z 20020G26KT 31/19 A2994 RMK A01 T03060185  RH  048%=      5-min Rain = 0
KCL2 141850Z 20017KT 30/19 A2994 RMK A01 T03040185  RH  049%=      5-min Rain = 0
KCL2 141851Z 20018KT 30/19 A2994 RMK A01 T03030186  RH  050%=      5-min Rain = 0
KCL2 141852Z 22016KT 30/19 A2994 RMK A01 T03030188  RH  050%=      5-min Rain = 0
KCL2 141853Z 21021KT 30/19 A2993 RMK A01 T03040188  RH  050%=      5-min Rain = 0
KCL2 141854Z 20021G26KT 30/19 A2993 RMK A01 T03040188  RH  050%=      5-min Rain = 0
KCL2 141855Z 18018G24KT 30/19 A2993 RMK A01 T03040189  RH  050%=      5-min Rain = 0
KCL2 141856Z 20020G25KT 31/19 A2994 RMK A01 T03050188  RH  050%=      5-min Rain = 0
KCL2 141857Z 20015KT 31/19 A2994 RMK A01 T03050190  RH  050%=      5-min Rain = 0
KCL2 141858Z 19017G22KT 31/19 A2994 RMK A01 T03060189  RH  050%=      5-min Rain = 0
KCL2 141859Z 18018KT 31/19 A2993 RMK A01 T03060189  RH  050%=      5-min Rain = 0
KCL2 141900Z 20019KT 31/19 A2994 RMK A01 T03060188  RH  049%=      5-min Rain = 0
KCL2 141901Z 19018G23KT 31/19 A2994 RMK A01 T03070187  RH  049%=      5-min Rain = 0
KCL2 141902Z 20016KT 31/19 A2994 RMK A01 T03050189  RH  050%=      5-min Rain = 0
KCL2 141903Z 19014KT 31/19 A2994 RMK A01 T03060191  RH  050%=      5-min Rain = 0
KCL2 141904Z 19019G26KT 31/19 A2994 RMK A01 T03090191  RH  049%=      5-min Rain = 0
KCL2 141905Z 20018G25KT 31/19 A2994 RMK A01 T03090185  RH  047%=      5-min Rain = 0
KCL2 141906Z 20015G20KT 31/19 A2994 RMK A01 T03080188  RH  049%=      5-min Rain = 0
KCL2 141907Z 20019G24KT 31/19 A2994 RMK A01 T03090188  RH  049%=      5-min Rain = 0
KCL2 141908Z 20020KT 31/18 A2994 RMK A01 T03090184  RH  047%=      5-min Rain = 0
KCL2 141909Z 20019G24KT 31/18 A2994 RMK A01 T03070183  RH  048%=      5-min Rain = 0
KCL2 141910Z 21018KT 31/18 A2993 RMK A01 T03070184  RH  048%=      5-min Rain = 0
KCL2 141911Z 21016G22KT 31/19 A2994 RMK A01 T03070187  RH  049%=      5-min Rain = 0
KCL2 141912Z 20017G22KT 31/19 A2994 RMK A01 T03100190  RH  049%=      5-min Rain = 0
KCL2 141913Z 21019KT 31/19 A2994 RMK A01 T03120187  RH  047%=      5-min Rain = 0
KCL2 141914Z 21018KT 31/18 A2994 RMK A01 T03100184  RH  047%=      5-min Rain = 0
KCL2 141915Z 21016KT 31/18 A2994 RMK A01 T03070184  RH  048%=      5-min Rain = 0
KCL2 141916Z 20020KT 31/19 A2993 RMK A01 T03060185  RH  048%=      5-min Rain = 0
KCL2 141917Z 21018KT 31/18 A2993 RMK A01 T03050183  RH  048%=      5-min Rain = 0
KCL2 141918Z 20018G23KT 30/18 A2993 RMK A01 T03040184  RH  049%=      5-min Rain = 0
KCL2 141919Z 20017KT 31/18 A2993 RMK A01 T03050183  RH  048%=      5-min Rain = 0
KCL2 141920Z 21015G20KT 31/19 A2993 RMK A01 T03050188  RH  050%=      5-min Rain = 0
KCL2 141921Z 19016KT 31/19 A2993 RMK A01 T03070188  RH  049%=      5-min Rain = 0
KCL2 141922Z 18018G26KT 31/19 A2993 RMK A01 T03080188  RH  049%=      5-min Rain = 0
KCL2 141923Z 18019KT 31/18 A2993 RMK A01 T03070183  RH  047%=      5-min Rain = 0
KCL2 141924Z 18018KT 31/18 A2993 RMK A01 T03050184  RH  048%=      5-min Rain = 0
KCL2 141925Z 19017G22KT 30/19 A2993 RMK A01 T03040186  RH  049%=      5-min Rain = 0
KCL2 141926Z 20018G23KT 30/19 A2993 RMK A01 T03040188  RH  050%=      5-min Rain = 0
KCL2 141927Z 20020KT 30/19 A2993 RMK A01 T03040185  RH  049%=      5-min Rain = 0
KCL2 141928Z 20017KT 30/18 A2993 RMK A01 T03010184  RH  050%=      5-min Rain = 0
KCL2 141929Z 19018G23KT 30/19 A2993 RMK A01 T02990185  RH  050%=      5-min Rain = 0
KCL2 141930Z 18017G22KT 30/18 A2993 RMK A01 T02970184  RH  051%=      5-min Rain = 0
KCL2 141931Z 20015G20KT 30/19 A2993 RMK A01 T02950185  RH  051%=      5-min Rain = 0
KCL2 141932Z 19016G24KT 30/19 A2993 RMK A01 T02950185  RH  052%=      5-min Rain = 0
KCL2 141933Z 19017KT 30/19 A2993 RMK A01 T02950186  RH  052%=      5-min Rain = 0
KCL2 141934Z 19017KT 30/19 A2993 RMK A01 T02980188  RH  052%=      5-min Rain = 0
KCL2 141935Z 18015KT 30/19 A2992 RMK A01 T03020190  RH  051%=      5-min Rain = 0
KCL2 141936Z 19019KT 31/19 A2992 RMK A01 T03060190  RH  050%=      5-min Rain = 0
KCL2 141937Z 19015G21KT 31/19 A2992 RMK A01 T03070191  RH  050%=      5-min Rain = 0
KCL2 141938Z 18019G24KT 31/19 A2992 RMK A01 T03090193  RH  050%=      5-min Rain = 0
KCL2 141939Z 20017KT 31/19 A2992 RMK A01 T03110193  RH  049%=      5-min Rain = 0
KCL2 141940Z 19016G22KT 31/19 A2992 RMK A01 T03120193  RH  049%=      5-min Rain = 0
KCL2 141941Z 18018G24KT 31/19 A2992 RMK A01 T03100189  RH  049%=      5-min Rain = 0
KCL2 141942Z 17015G20KT 31/19 A2992 RMK A01 T03080191  RH  050%=      5-min Rain = 0
KCL2 141943Z 18017KT 31/19 A2992 RMK A01 T03080192  RH  050%=      5-min Rain = 0
KCL2 141944Z 18017KT 31/19 A2991 RMK A01 T03100192  RH  049%=      5-min Rain = 0
KCL2 141945Z 18018KT 31/19 A2992 RMK A01 T03100190  RH  049%=      5-min Rain = 0
KCL2 141946Z 18018KT 31/19 A2991 RMK A01 T03100189  RH  049%=      5-min Rain = 0
KCL2 141947Z 18016KT 31/19 A2991 RMK A01 T03080190  RH  049%=      5-min Rain = 0
KCL2 141948Z 17019KT 31/19 A2991 RMK A01 T03080190  RH  049%=      5-min Rain = 0
KCL2 141949Z 18016KT 31/19 A2991 RMK A01 T03100193  RH  050%=      5-min Rain = 0
KCL2 141950Z 19018G27KT 31/19 A2991 RMK A01 T03130193  RH  049%=      5-min Rain = 0
KCL2 141951Z 18019G26KT 31/19 A2991 RMK A01 T03140191  RH  048%=      5-min Rain = 0
KCL2 141952Z 18020KT 32/19 A2991 RMK A01 T03150187  RH  047%=      5-min Rain = 0
KCL2 141953Z 19020G25KT 31/19 A2991 RMK A01 T03140187  RH  047%=      5-min Rain = 0
KCL2 141954Z 19021G27KT 31/19 A2991 RMK A01 T03140186  RH  047%=      5-min Rain = 0
KCL2 141955Z 19021G27KT 31/18 A2991 RMK A01 T03120184  RH  046%=      5-min Rain = 0
KCL2 141956Z 18019G24KT 31/19 A2991 RMK A01 T03110185  RH  047%=      5-min Rain = 0
KCL2 141957Z 19018G23KT 31/18 A2991 RMK A01 T03120184  RH  047%=      5-min Rain = 0
KCL2 141958Z 19016G21KT 31/19 A2991 RMK A01 T03140187  RH  047%=      5-min Rain = 0
KCL2 141959Z 20017G23KT 32/19 A2991 RMK A01 T03160189  RH  047%=      5-min Rain = 0
KCL2 142000Z 19020KT 32/19 A2991 RMK A01 T03160185  RH  046%=      5-min Rain = 0
KCL2 142001Z 19021KT 32/19 A2991 RMK A01 T03150185  RH  046%=      5-min Rain = 0
KCL2 142002Z 20020G25KT 31/19 A2991 RMK A01 T03140187  RH  047%=      5-min Rain = 0
KCL2 142003Z 20021KT 31/19 A2991 RMK A01 T03130186  RH  047%=      5-min Rain = 0
KCL2 142004Z 18018KT 31/19 A2991 RMK A01 T03140188  RH  047%=      5-min Rain = 0
KCL2 142005Z 17017G23KT 31/19 A2991 RMK A01 T03140190  RH  048%=      5-min Rain = 0
KCL2 142006Z 17017KT 31/19 A2991 RMK A01 T03140190  RH  048%=      5-min Rain = 0
KCL2 142007Z 18019KT 31/19 A2991 RMK A01 T03140188  RH  047%=      5-min Rain = 0
KCL2 142008Z 18020G26KT 31/19 A2991 RMK A01 T03130188  RH  047%=      5-min Rain = 0
KCL2 142009Z 17020KT 31/19 A299 RMK A01 T03130188  RH  048%=      5-min Rain = 0
KCL2 142010Z 18019G24KT 31/19 A2991 RMK A01 T03130189  RH  048%=      5-min Rain = 0
KCL2 142011Z 17017KT 31/19 A2991 RMK A01 T03140190  RH  048%=      5-min Rain = 0
KCL2 142012Z 18017KT 31/19 A2991 RMK A01 T03140191  RH  048%=      5-min Rain = 0
KCL2 142013Z 18017KT 32/19 A2991 RMK A01 T03150190  RH  048%=      5-min Rain = 0
KCL2 142014Z 18019G24KT 32/19 A2991 RMK A01 T03150188  RH  047%=      5-min Rain = 0
KCL2 142015Z 18015G20KT 31/19 A2991 RMK A01 T03130189  RH  048%=      5-min Rain = 0
KCL2 142016Z 18017G22KT 31/19 A2991 RMK A01 T03130190  RH  048%=      5-min Rain = 0
KCL2 142017Z 17020KT 31/19 A2991 RMK A01 T03140187  RH  047%=      5-min Rain = 0
KCL2 142018Z 18016G21KT 31/19 A2991 RMK A01 T03130190  RH  048%=      5-min Rain = 0
KCL2 142019Z 17017G22KT 31/19 A299 RMK A01 T03140188  RH  047%=      5-min Rain = 0
KCL2 142020Z 17013G19KT 32/19 A2991 RMK A01 T03150192  RH  048%=      5-min Rain = 0
KCL2 142021Z 19020G25KT 32/19 A299 RMK A01 T03170186  RH  046%=      5-min Rain = 0
KCL2 142022Z 20020KT 32/19 A299 RMK A01 T03160185  RH  046%=      5-min Rain = 0
KCL2 142023Z 19019G24KT 32/19 A299 RMK A01 T03150187  RH  046%=      5-min Rain = 0
KCL2 142024Z 19019KT 32/19 A299 RMK A01 T03150185  RH  046%=      5-min Rain = 0
KCL2 142025Z 18020KT 32/18 A299 RMK A01 T03150184  RH  046%=      5-min Rain = 0
KCL2 142026Z 19014KT 31/19 A299 RMK A01 T03140189  RH  047%=      5-min Rain = 0
KCL2 142027Z 19013KT 32/19 A299 RMK A01 T03160192  RH  048%=      5-min Rain = 0
KCL2 142028Z 19018G27KT 32/19 A299 RMK A01 T03200194  RH  047%=      5-min Rain = 0
KCL2 142029Z 20018KT 32/19 A299 RMK A01 T03190186  RH  045%=      5-min Rain = 0
KCL2 142030Z 20019KT 32/19 A299 RMK A01 T03170187  RH  046%=      5-min Rain = 0
KCL2 142031Z 19019G26KT 32/19 A299 RMK A01 T03160187  RH  046%=      5-min Rain = 0
KCL2 142032Z 19021G27KT 32/19 A299 RMK A01 T03160186  RH  046%=      5-min Rain = 0
KCL2 142033Z 19019KT 32/19 A299 RMK A01 T03160186  RH  046%=      5-min Rain = 0
KCL2 142034Z 19019KT 32/19 A299 RMK A01 T03150186  RH  046%=      5-min Rain = 0
KCL2 142035Z 19017G22KT 32/18 A299 RMK A01 T03160184  RH  046%=      5-min Rain = 0
KCL2 142036Z 20018KT 32/19 A299 RMK A01 T03160187  RH  046%=      5-min Rain = 0
KCL2 142037Z 19019KT 32/19 A299 RMK A01 T03180186  RH  046%=      5-min Rain = 0
KCL2 142038Z 20015KT 32/19 A299 RMK A01 T03170189  RH  047%=      5-min Rain = 0
KCL2 142039Z 20017G24KT 32/19 A299 RMK A01 T03180191  RH  047%=      5-min Rain = 0
KCL2 142040Z 19020KT 32/19 A299 RMK A01 T03190190  RH  046%=      5-min Rain = 0
KCL2 142041Z 19016G21KT 32/19 A299 RMK A01 T03190188  RH  046%=      5-min Rain = 0
KCL2 142042Z 18014G19KT 32/19 A299 RMK A01 T03180193  RH  047%=      5-min Rain = 0
KCL2 142043Z 19015G20KT 32/20 A299 RMK A01 T03200195  RH  047%=      5-min Rain = 0
KCL2 142044Z 18018KT 32/19 A2989 RMK A01 T03220190  RH  046%=      5-min Rain = 0
KCL2 142045Z 19017G27KT 32/19 A2989 RMK A01 T03210190  RH  046%=      5-min Rain = 0
KCL2 142046Z 20018KT 32/19 A299 RMK A01 T03190187  RH  046%=      5-min Rain = 0
KCL2 142047Z 20014KT 32/19 A2989 RMK A01 T03180189  RH  046%=      5-min Rain = 0
KCL2 142048Z 19014G21KT 32/19 A299 RMK A01 T03180192  RH  047%=      5-min Rain = 0
KCL2 142049Z 20022KT 32/19 A2989 RMK A01 T03190188  RH  046%=      5-min Rain = 0
KCL2 142050Z 19019KT 32/19 A2989 RMK A01 T03170187  RH  046%=      5-min Rain = 0
KCL2 142051Z 19019KT 32/19 A2989 RMK A01 T03160189  RH  047%=      5-min Rain = 0
KCL2 142052Z 19018G24KT 32/19 A2989 RMK A01 T03160187  RH  046%=      5-min Rain = 0
KCL2 142053Z 18016G21KT 32/19 A2989 RMK A01 T03160190  RH  047%=      5-min Rain = 0
KCL2 142054Z 18016G22KT 32/19 A2989 RMK A01 T03170191  RH  047%=      5-min Rain = 0
KCL2 142055Z 18019KT 32/19 A2989 RMK A01 T03180190  RH  047%=      5-min Rain = 0
KCL2 142056Z 18022KT 32/19 A2989 RMK A01 T03170188  RH  046%=      5-min Rain = 0
KCL2 142057Z 18018G23KT 32/19 A2989 RMK A01 T03150187  RH  046%=      5-min Rain = 0
KCL2 142058Z 18016KT 32/19 A2989 RMK A01 T03150190  RH  047%=      5-min Rain = 0
KCL2 142059Z 17016G21KT 32/19 A2989 RMK A01 T03160191  RH  048%=      5-min Rain = 0
KCL2 142100Z 17018KT 32/19 A2989 RMK A01 T03170188  RH  046%=      5-min Rain = 0
KCL2 142101Z 18016KT 32/19 A2989 RMK A01 T03170191  RH  047%=      5-min Rain = 0
KCL2 142102Z 18013KT 32/19 A2989 RMK A01 T03170194  RH  048%=      5-min Rain = 0
KCL2 142103Z 19017G23KT 32/19 A2989 RMK A01 T03180191  RH  047%=      5-min Rain = 0
KCL2 142104Z 19018G23KT 32/19 A2989 RMK A01 T03180189  RH  046%=      5-min Rain = 0
KCL2 142105Z 19018G26KT 32/19 A2989 RMK A01 T03160190  RH  047%=      5-min Rain = 0
KCL2 142106Z 18019G28KT 32/19 A2989 RMK A01 T03160188  RH  046%=      5-min Rain = 0
KCL2 142107Z 19018KT 32/19 A2989 RMK A01 T03160188  RH  047%=      5-min Rain = 0
KCL2 142108Z 17018KT 32/19 A2989 RMK A01 T03160186  RH  046%=      5-min Rain = 0
KCL2 142109Z 19016KT 32/19 A2989 RMK A01 T03160187  RH  046%=      5-min Rain = 0
KCL2 142110Z 19015G23KT 32/19 A2989 RMK A01 T03170191  RH  047%=      5-min Rain = 0
KCL2 142111Z 19018G23KT 32/19 A2989 RMK A01 T03180189  RH  046%=      5-min Rain = 0
KCL2 142112Z 20020KT 32/19 A2988 RMK A01 T03180189  RH  046%=      5-min Rain = 0
KCL2 142113Z 18018G23KT 32/19 A2989 RMK A01 T03180190  RH  047%=      5-min Rain = 0
KCL2 142114Z 18018G26KT 32/19 A2988 RMK A01 T03170190  RH  047%=      5-min Rain = 0
KCL2 142115Z 18017G23KT 32/19 A2988 RMK A01 T03170188  RH  046%=      5-min Rain = 0
KCL2 142116Z 18018G24KT 32/19 A2988 RMK A01 T03170189  RH  047%=      5-min Rain = 0
KCL2 142117Z 18014KT 32/19 A2988 RMK A01 T03170193  RH  048%=      5-min Rain = 0
KCL2 142118Z 19019G25KT 32/19 A2988 RMK A01 T03190192  RH  047%=      5-min Rain = 0
KCL2 142119Z 19018G25KT 32/19 A2988 RMK A01 T03190190  RH  046%=      5-min Rain = 0
KCL2 142120Z 19015G20KT 32/19 A2988 RMK A01 T03190194  RH  047%=      5-min Rain = 0
KCL2 142121Z 19017G22KT 32/19 A2988 RMK A01 T03200190  RH  046%=      5-min Rain = 0
KCL2 142122Z 19015G20KT 32/19 A2988 RMK A01 T03190191  RH  046%=      5-min Rain = 0
KCL2 142123Z 19017KT 32/19 A2988 RMK A01 T03190191  RH  047%=      5-min Rain = 0
KCL2 142124Z 17018G23KT 32/19 A2988 RMK A01 T03190190  RH  046%=      5-min Rain = 0
KCL2 142125Z 18019G24KT 32/19 A2988 RMK A01 T03180190  RH  047%=      5-min Rain = 0
KCL2 142126Z 18020KT 32/19 A2988 RMK A01 T03180188  RH  046%=      5-min Rain = 0
KCL2 142127Z 18017KT 32/19 A2988 RMK A01 T03180189  RH  046%=      5-min Rain = 0
KCL2 142128Z 18013KT 32/19 A2988 RMK A01 T03170190  RH  047%=      5-min Rain = 0
KCL2 142129Z 17014G21KT 32/19 A2988 RMK A01 T03190193  RH  047%=      5-min Rain = 0
KCL2 142130Z 18019G27KT 32/19 A2988 RMK A01 T03210190  RH  046%=      5-min Rain = 0
KCL2 142131Z 19020G25KT 32/19 A2988 RMK A01 T03210188  RH  045%=      5-min Rain = 0
KCL2 142132Z 19011KT 32/19 A2988 RMK A01 T03200193  RH  047%=      5-min Rain = 0
KCL2 142133Z 19012G19KT 32/20 A2988 RMK A01 T03210195  RH  047%=      5-min Rain = 0
KCL2 142134Z 20016G23KT 32/19 A2988 RMK A01 T03220191  RH  046%=      5-min Rain = 0
KCL2 142135Z 20020G25KT 32/19 A2988 RMK A01 T03220188  RH  045%=      5-min Rain = 0
KCL2 142136Z 20016KT 32/19 A2988 RMK A01 T03200188  RH  045%=      5-min Rain = 0
KCL2 142137Z 20015G22KT 32/19 A2988 RMK A01 T03200190  RH  046%=      5-min Rain = 0
KCL2 142138Z 18015G21KT 32/19 A2988 RMK A01 T03190189  RH  046%=      5-min Rain = 0
KCL2 142139Z 18019G24KT 32/19 A2988 RMK A01 T03200188  RH  046%=      5-min Rain = 0
KCL2 142140Z 18022G27KT 32/18 A2988 RMK A01 T03200183  RH  044%=      5-min Rain = 0
KCL2 142141Z 18018G24KT 32/18 A2988 RMK A01 T03180183  RH  045%=      5-min Rain = 0
KCL2 142142Z 18017KT 32/18 A2988 RMK A01 T03170184  RH  045%=      5-min Rain = 0
KCL2 142143Z 19018KT 32/19 A2988 RMK A01 T03170185  RH  045%=      5-min Rain = 0
KCL2 142144Z 17018G23KT 32/18 A2988 RMK A01 T03180183  RH  045%=      5-min Rain = 0
KCL2 142145Z 17019G25KT 32/19 A2988 RMK A01 T03180185  RH  045%=      5-min Rain = 0
KCL2 142146Z 19019KT 32/18 A2988 RMK A01 T03180183  RH  045%=      5-min Rain = 0
KCL2 142147Z 19014G20KT 32/19 A2988 RMK A01 T03180186  RH  046%=      5-min Rain = 0
KCL2 142148Z 20014G20KT 32/19 A2988 RMK A01 T03190189  RH  046%=      5-min Rain = 0
KCL2 142149Z 20020KT 32/18 A2988 RMK A01 T03190184  RH  045%=      5-min Rain = 0
KCL2 142150Z 20018G24KT 32/18 A2988 RMK A01 T03170182  RH  044%=      5-min Rain = 0
KCL2 142151Z 20016G21KT 32/19 A2988 RMK A01 T03170187  RH  046%=      5-min Rain = 0
KCL2 142152Z 19015G20KT 32/19 A2988 RMK A01 T03180187  RH  046%=      5-min Rain = 0
KCL2 142153Z 20015KT 32/19 A2988 RMK A01 T03190186  RH  045%=      5-min Rain = 0
KCL2 142154Z 18015KT 32/19 A2988 RMK A01 T03190189  RH  046%=      5-min Rain = 0
KCL2 142155Z 18015G22KT 32/19 A2988 RMK A01 T03200190  RH  046%=      5-min Rain = 0
KCL2 142156Z 19020KT 32/19 A2988 RMK A01 T03210187  RH  045%=      5-min Rain = 0
KCL2 142157Z 19015KT 32/19 A2988 RMK A01 T03190186  RH  045%=      5-min Rain = 0
KCL2 142158Z 18019G24KT 32/19 A2988 RMK A01 T03180188  RH  046%=      5-min Rain = 0
KCL2 142159Z 19019KT 32/19 A2988 RMK A01 T03180187  RH  046%=      5-min Rain = 0
KCL2 142200Z 18019G24KT 32/19 A2988 RMK A01 T03180186  RH  045%=      5-min Rain = 0
KCL2 142201Z 18019G25KT 32/19 A2988 RMK A01 T03170187  RH  046%=      5-min Rain = 0
KCL2 142202Z 18021G27KT 32/19 A2987 RMK A01 T03170186  RH  046%=      5-min Rain = 0
KCL2 142203Z 18020G25KT 32/19 A2988 RMK A01 T03170187  RH  046%=      5-min Rain = 0
KCL2 142204Z 18021KT 32/19 A2987 RMK A01 T03170185  RH  045%=      5-min Rain = 0
KCL2 142205Z 19019KT 32/18 A2988 RMK A01 T03160184  RH  046%=      5-min Rain = 0
KCL2 142206Z 19016KT 32/19 A2988 RMK A01 T03150188  RH  047%=      5-min Rain = 0
KCL2 142207Z 19019KT 32/19 A2987 RMK A01 T03160187  RH  046%=      5-min Rain = 0
KCL2 142208Z 19018KT 32/19 A2987 RMK A01 T03160186  RH  046%=      5-min Rain = 0
KCL2 142209Z 20020G26KT 32/19 A2987 RMK A01 T03160187  RH  046%=      5-min Rain = 0
KCL2 142210Z 18022G27KT 32/19 A2987 RMK A01 T03160186  RH  046%=      5-min Rain = 0
KCL2 142211Z 18020KT 32/19 A2987 RMK A01 T03160186  RH  046%=      5-min Rain = 0
KCL2 142212Z 19018KT 32/19 A2988 RMK A01 T03160187  RH  046%=      5-min Rain = 0
KCL2 142213Z 19015KT 32/19 A2988 RMK A01 T03160187  RH  046%=      5-min Rain = 0
KCL2 142214Z 18020KT 32/19 A2988 RMK A01 T03170186  RH  046%=      5-min Rain = 0
KCL2 142215Z 20018KT 32/18 A2987 RMK A01 T03160184  RH  045%=      5-min Rain = 0
KCL2 142216Z 19017G24KT 32/19 A2988 RMK A01 T03150186  RH  046%=      5-min Rain = 0
KCL2 142217Z 19019G25KT 31/18 A2987 RMK A01 T03140184  RH  046%=      5-min Rain = 0
KCL2 142218Z 19016KT 31/18 A2987 RMK A01 T03120183  RH  046%=      5-min Rain = 0
KCL2 142219Z 20016G22KT 31/18 A2988 RMK A01 T03110184  RH  047%=      5-min Rain = 0
KCL2 142220Z 19016KT 31/18 A2987 RMK A01 T03100183  RH  047%=      5-min Rain = 0
KCL2 142221Z 19018G25KT 31/18 A2987 RMK A01 T03100184  RH  047%=      5-min Rain = 0
KCL2 142222Z 19018G23KT 31/18 A2987 RMK A01 T03100184  RH  047%=      5-min Rain = 0
KCL2 142223Z 20021G28KT 31/18 A2987 RMK A01 T03120184  RH  046%=      5-min Rain = 0
KCL2 142224Z 19019KT 31/18 A2987 RMK A01 T03130183  RH  046%=      5-min Rain = 0
KCL2 142225Z 19018KT 31/18 A2988 RMK A01 T03130184  RH  046%=      5-min Rain = 0
KCL2 142226Z 19016KT 31/18 A2987 RMK A01 T03130184  RH  046%=      5-min Rain = 0
KCL2 142227Z 19018G25KT 31/18 A2987 RMK A01 T03140183  RH  046%=      5-min Rain = 0
KCL2 142228Z 19019G24KT 31/18 A2987 RMK A01 T03140181  RH  045%=      5-min Rain = 0
KCL2 142229Z 20017KT 31/18 A2987 RMK A01 T03140181  RH  045%=      5-min Rain = 0
KCL2 142230Z 20014KT 32/19 A2987 RMK A01 T03150185  RH  046%=      5-min Rain = 0
KCL2 142231Z 21019G24KT 32/19 A2987 RMK A01 T03150185  RH  046%=      5-min Rain = 0
KCL2 142232Z 21015KT 32/19 A2987 RMK A01 T03160186  RH  046%=      5-min Rain = 0
KCL2 142233Z 20017KT 32/19 A2987 RMK A01 T03160188  RH  047%=      5-min Rain = 0
KCL2 142234Z 19014KT 32/19 A2987 RMK A01 T03160188  RH  046%=      5-min Rain = 0
KCL2 142235Z 19014G20KT 32/19 A2987 RMK A01 T03170189  RH  047%=      5-min Rain = 0
KCL2 142236Z 18016KT 32/19 A2987 RMK A01 T03170189  RH  047%=      5-min Rain = 0
KCL2 142237Z 19014KT 32/19 A2987 RMK A01 T03160190  RH  047%=      5-min Rain = 0
KCL2 142238Z 19014KT 32/19 A2987 RMK A01 T03160192  RH  048%=      5-min Rain = 0
KCL2 142239Z 20015KT 32/19 A2987 RMK A01 T03160191  RH  047%=      5-min Rain = 0
KCL2 142240Z 20013G18KT 32/19 A2987 RMK A01 T03160194  RH  048%=      5-min Rain = 0
KCL2 142241Z 19013G18KT 32/19 A2987 RMK A01 T03170191  RH  047%=      5-min Rain = 0
KCL2 142242Z 18017KT 32/19 A2987 RMK A01 T03170189  RH  047%=      5-min Rain = 0
KCL2 142243Z 18019G24KT 32/19 A2987 RMK A01 T03170185  RH  046%=      5-min Rain = 0
KCL2 142244Z 18018KT 32/18 A2987 RMK A01 T03160181  RH  045%=      5-min Rain = 0
KCL2 142245Z 19016G22KT 32/18 A2987 RMK A01 T03150184  RH  046%=      5-min Rain = 0
KCL2 142246Z 18017KT 32/18 A2987 RMK A01 T03150182  RH  045%=      5-min Rain = 0
KCL2 142247Z 18016G21KT 31/18 A2986 RMK A01 T03140182  RH  045%=      5-min Rain = 0
KCL2 142248Z 18017KT 31/18 A2986 RMK A01 T03140183  RH  046%=      5-min Rain = 0
KCL2 142249Z 18018KT 31/18 A2986 RMK A01 T03140184  RH  046%=      5-min Rain = 0
KCL2 142250Z 18019KT 31/18 A2986 RMK A01 T03130183  RH  046%=      5-min Rain = 0
KCL2 142251Z 18017KT 31/18 A2986 RMK A01 T03120183  RH  046%=      5-min Rain = 0
KCL2 142252Z 18015G21KT 31/19 A2986 RMK A01 T03120185  RH  047%=      5-min Rain = 0
KCL2 142253Z 18020G26KT 31/18 A2986 RMK A01 T03120184  RH  047%=      5-min Rain = 0
KCL2 142254Z 17015KT 31/19 A2986 RMK A01 T03120185  RH  047%=      5-min Rain = 0
KCL2 142255Z 18017G22KT 31/19 A2986 RMK A01 T03120185  RH  047%=      5-min Rain = 0
KCL2 142256Z 18017G23KT 31/19 A2986 RMK A01 T03120187  RH  047%=      5-min Rain = 0
KCL2 142257Z 18016KT 31/19 A2986 RMK A01 T03130187  RH  047%=      5-min Rain = 0
KCL2 142258Z 19011G16KT 31/19 A2986 RMK A01 T03130191  RH  048%=      5-min Rain = 0
KCL2 142259Z 18013G20KT 31/19 A2986 RMK A01 T03130193  RH  049%=      5-min Rain = 0
KCL2 142300Z 18017G22KT 32/19 A2986 RMK A01 T03150187  RH  047%=      5-min Rain = 0
KCL2 142301Z 17016G21KT 31/19 A2986 RMK A01 T03140187  RH  047%=      5-min Rain = 0
KCL2 142302Z 18018KT 31/19 A2986 RMK A01 T03130188  RH  047%=      5-min Rain = 0
KCL2 142303Z 17015KT 31/19 A2986 RMK A01 T03120189  RH  048%=      5-min Rain = 0
KCL2 142304Z 18016KT 31/19 A2986 RMK A01 T03130187  RH  047%=      5-min Rain = 0
KCL2 142305Z 19017KT 31/19 A2985 RMK A01 T03120187  RH  048%=      5-min Rain = 0
KCL2 142306Z 19017G24KT 31/19 A2986 RMK A01 T03110187  RH  048%=      5-min Rain = 0
KCL2 142307Z 19015G22KT 31/19 A2986 RMK A01 T03110188  RH  048%=      5-min Rain = 0
KCL2 142308Z 18019KT 31/19 A2985 RMK A01 T03120185  RH  047%=      5-min Rain = 0
KCL2 142309Z 18016G21KT 31/19 A2985 RMK A01 T03120186  RH  047%=      5-min Rain = 0
KCL2 142310Z 17017G24KT 31/19 A2985 RMK A01 T03120186  RH  047%=      5-min Rain = 0
KCL2 142311Z 18017G22KT 31/18 A2985 RMK A01 T03120183  RH  046%=      5-min Rain = 0
KCL2 142312Z 18014KT 31/19 A2985 RMK A01 T03110186  RH  047%=      5-min Rain = 0
KCL2 142313Z 18014KT 31/19 A2985 RMK A01 T03110186  RH  047%=      5-min Rain = 0
KCL2 142314Z 19018KT 31/19 A2985 RMK A01 T03120185  RH  047%=      5-min Rain = 0
KCL2 142315Z 18017G22KT 31/19 A2985 RMK A01 T03120185  RH  047%=      5-min Rain = 0
KCL2 142316Z 19016G22KT 31/18 A2985 RMK A01 T03120184  RH  047%=      5-min Rain = 0
KCL2 142317Z 19016KT 31/18 A2985 RMK A01 T03110184  RH  047%=      5-min Rain = 0
KCL2 142318Z 19017KT 31/18 A2985 RMK A01 T03110184  RH  047%=      5-min Rain = 0
KCL2 142319Z 18015KT 31/19 A2985 RMK A01 T03110185  RH  047%=      5-min Rain = 0
KCL2 142320Z 18012G18KT 31/19 A2985 RMK A01 T03110186  RH  048%=      5-min Rain = 0
KCL2 142321Z 18013KT 31/19 A2985 RMK A01 T03110190  RH  048%=      5-min Rain = 0
KCL2 142322Z 18017KT 31/19 A2985 RMK A01 T03120186  RH  047%=      5-min Rain = 0
KCL2 142323Z 18017G22KT 31/19 A2985 RMK A01 T03120185  RH  047%=      5-min Rain = 0
KCL2 142324Z 18017G22KT 31/18 A2985 RMK A01 T03120184  RH  047%=      5-min Rain = 0
KCL2 142325Z 18017KT 31/18 A2985 RMK A01 T03120181  RH  046%=      5-min Rain = 0
KCL2 142326Z 18019KT 31/18 A2985 RMK A01 T03120182  RH  046%=      5-min Rain = 0
KCL2 142327Z 18015KT 31/18 A2985 RMK A01 T03110183  RH  046%=      5-min Rain = 0
KCL2 142328Z 18017G23KT 31/18 A2985 RMK A01 T03110181  RH  046%=      5-min Rain = 0
KCL2 142329Z 18019KT 31/18 A2985 RMK A01 T03110181  RH  046%=      5-min Rain = 0
KCL2 142330Z 18019KT 31/18 A2985 RMK A01 T03110181  RH  046%=      5-min Rain = 0
KCL2 142331Z 18019G24KT 31/18 A2985 RMK A01 T03100182  RH  046%=      5-min Rain = 0
KCL2 142332Z 18019KT 31/18 A2985 RMK A01 T03100182  RH  047%=      5-min Rain = 0
KCL2 142333Z 18017KT 31/18 A2985 RMK A01 T03090182  RH  047%=      5-min Rain = 0
KCL2 142334Z 18019G24KT 31/18 A2985 RMK A01 T03090183  RH  047%=      5-min Rain = 0
KCL2 142335Z 18015G21KT 31/18 A2985 RMK A01 T03090184  RH  047%=      5-min Rain = 0
KCL2 142336Z 18016G21KT 31/18 A2985 RMK A01 T03090184  RH  047%=      5-min Rain = 0
KCL2 142337Z 19012G19KT 31/19 A2985 RMK A01 T03090186  RH  048%=      5-min Rain = 0
KCL2 142338Z 18015KT 31/18 A2985 RMK A01 T03090184  RH  047%=      5-min Rain = 0
KCL2 142339Z 19012KT 31/19 A2985 RMK A01 T03090185  RH  048%=      5-min Rain = 0
KCL2 142340Z 19011KT 31/19 A2985 RMK A01 T03090186  RH  048%=      5-min Rain = 0
KCL2 142341Z 19011KT 31/19 A2985 RMK A01 T03090186  RH  048%=      5-min Rain = 0
KCL2 142342Z 19015KT 31/19 A2985 RMK A01 T03100186  RH  048%=      5-min Rain = 0
KCL2 142343Z 19013G20KT 31/19 A2985 RMK A01 T03090185  RH  048%=      5-min Rain = 0
KCL2 142344Z 19017KT 31/18 A2985 RMK A01 T03090183  RH  047%=      5-min Rain = 0
KCL2 142345Z 18017KT 31/18 A2985 RMK A01 T03090182  RH  047%=      5-min Rain = 0
KCL2 142346Z 19014KT 31/18 A2985 RMK A01 T03090184  RH  047%=      5-min Rain = 0
KCL2 142347Z 19014KT 31/19 A2985 RMK A01 T03080185  RH  048%=      5-min Rain = 0
KCL2 142348Z 19017G23KT 31/18 A2985 RMK A01 T03080182  RH  047%=      5-min Rain = 0
KCL2 142349Z 18015KT 31/18 A2985 RMK A01 T03080181  RH  047%=      5-min Rain = 0
KCL2 142350Z 19013G18KT 31/18 A2985 RMK A01 T03080183  RH  047%=      5-min Rain = 0
KCL2 142351Z 19014KT 31/18 A2985 RMK A01 T03080183  RH  047%=      5-min Rain = 0
KCL2 142352Z 18014KT 31/18 A2985 RMK A01 T03080184  RH  048%=      5-min Rain = 0
KCL2 142353Z 17015G23KT 31/19 A2985 RMK A01 T03080185  RH  048%=      5-min Rain = 0
KCL2 142354Z 18016KT 31/18 A2984 RMK A01 T03080182  RH  047%=      5-min Rain = 0
KCL2 142355Z 18017G22KT 31/18 A2984 RMK A01 T03080182  RH  047%=      5-min Rain = 0
KCL2 142356Z 19016G21KT 31/18 A2984 RMK A01 T03080181  RH  047%=      5-min Rain = 0
KCL2 142357Z 18017KT 31/18 A2984 RMK A01 T03080180  RH  046%=      5-min Rain = 0
KCL2 142358Z 18017G22KT 31/18 A2984 RMK A01 T03080181  RH  047%=      5-min Rain = 0
KCL2 142359Z 18018KT 31/18 A2984 RMK A01 T03080181  RH  047%=      5-min Rain = 0
KCL2 150000Z 18015KT 31/18 A2984 RMK A01 T03070180  RH  047%=      5-min Rain = 0
KCL2 150001Z 18016KT 31/18 A2984 RMK A01 T03070181  RH  047%=      5-min Rain = 0
KCL2 150002Z 19016G21KT 31/18 A2984 RMK A01 T03070180  RH  047%=      5-min Rain = 0
KCL2 150003Z 18015G20KT 31/18 A2984 RMK A01 T03070180  RH  047%=      5-min Rain = 0
KCL2 150004Z 18018KT 31/18 A2984 RMK A01 T03070180  RH  047%=      5-min Rain = 0
KCL2 150005Z 18018G25KT 31/18 A2984 RMK A01 T03070180  RH  047%=      5-min Rain = 0
KCL2 150006Z 18018G23KT 31/18 A2984 RMK A01 T03070178  RH  046%=      5-min Rain = 0
KCL2 150007Z 18019KT 31/18 A2984 RMK A01 T03070179  RH  046%=      5-min Rain = 0
KCL2 150008Z 19015KT 31/18 A2985 RMK A01 T03070180  RH  047%=      5-min Rain = 0
KCL2 150009Z 19017KT 31/18 A2985 RMK A01 T03070180  RH  047%=      5-min Rain = 0
KCL2 150010Z 19014G20KT 31/18 A2985 RMK A01 T03070180  RH  047%=      5-min Rain = 0
KCL2 150011Z 19014G21KT 31/18 A2985 RMK A01 T03060181  RH  047%=      5-min Rain = 0
KCL2 150012Z 19014G19KT 31/18 A2985 RMK A01 T03060181  RH  047%=      5-min Rain = 0
KCL2 150013Z 19018KT 31/18 A2985 RMK A01 T03060179  RH  047%=      5-min Rain = 0
KCL2 150014Z 18015KT 31/18 A2985 RMK A01 T03060179  RH  047%=      5-min Rain = 0
KCL2 150015Z 18015KT 31/18 A2985 RMK A01 T03060180  RH  047%=      5-min Rain = 0
KCL2 150016Z 18014KT 31/18 A2985 RMK A01 T03060181  RH  047%=      5-min Rain = 0
KCL2 150017Z 18017KT 31/18 A2985 RMK A01 T03060179  RH  047%=      5-min Rain = 0
KCL2 150018Z 18012KT 31/18 A2985 RMK A01 T03060180  RH  047%=      5-min Rain = 0
KCL2 150019Z 18011KT 31/18 A2985 RMK A01 T03060181  RH  047%=      5-min Rain = 0
KCL2 150020Z 18015KT 31/18 A2985 RMK A01 T03050181  RH  047%=      5-min Rain = 0
KCL2 150021Z 18015KT 31/18 A2985 RMK A01 T03050180  RH  047%=      5-min Rain = 0
KCL2 150022Z 18014KT 31/18 A2985 RMK A01 T03050180  RH  047%=      5-min Rain = 0
KCL2 150023Z 18014KT 31/18 A2985 RMK A01 T03050181  RH  047%=      5-min Rain = 0
KCL2 150024Z 19014KT 31/18 A2985 RMK A01 T03050181  RH  047%=      5-min Rain = 0
KCL2 150025Z 18010KT 31/18 A2985 RMK A01 T03050182  RH  048%=      5-min Rain = 0
KCL2 150026Z 18012G20KT 31/18 A2985 RMK A01 T03050183  RH  048%=      5-min Rain = 0
KCL2 150027Z 18015KT 30/18 A2985 RMK A01 T03040179  RH  047%=      5-min Rain = 0
KCL2 150028Z 18016KT 30/18 A2985 RMK A01 T03040180  RH  047%=      5-min Rain = 0
KCL2 150029Z 18015KT 30/18 A2985 RMK A01 T03040178  RH  047%=      5-min Rain = 0
KCL2 150030Z 17013KT 30/18 A2985 RMK A01 T03040178  RH  047%=      5-min Rain = 0
KCL2 150031Z 18016G22KT 30/18 A2985 RMK A01 T03040178  RH  047%=      5-min Rain = 0
KCL2 150032Z 18012KT 30/18 A2985 RMK A01 T03040178  RH  047%=      5-min Rain = 0
KCL2 150033Z 18014G19KT 30/18 A2985 RMK A01 T03030178  RH  047%=      5-min Rain = 0
KCL2 150034Z 18013KT 30/18 A2985 RMK A01 T03030177  RH  047%=      5-min Rain = 0
KCL2 150035Z 17011G17KT 30/18 A2985 RMK A01 T03030178  RH  047%=      5-min Rain = 0
KCL2 150036Z 18011KT 30/18 A2985 RMK A01 T03020179  RH  048%=      5-min Rain = 0
KCL2 150037Z 18011G17KT 30/18 A2985 RMK A01 T03020179  RH  048%=      5-min Rain = 0
KCL2 150038Z 18015KT 30/18 A2985 RMK A01 T03020177  RH  047%=      5-min Rain = 0
KCL2 150039Z 18014KT 30/18 A2985 RMK A01 T03020177  RH  047%=      5-min Rain = 0
KCL2 150040Z 18014KT 30/18 A2985 RMK A01 T03020178  RH  047%=      5-min Rain = 0
KCL2 150041Z 18012KT 30/18 A2985 RMK A01 T03010177  RH  048%=      5-min Rain = 0
KCL2 150042Z 18017KT 30/18 A2985 RMK A01 T03010177  RH  047%=      5-min Rain = 0
KCL2 150043Z 18015KT 30/18 A2985 RMK A01 T03010177  RH  047%=      5-min Rain = 0
KCL2 150044Z 18014KT 30/18 A2985 RMK A01 T03010177  RH  047%=      5-min Rain = 0
KCL2 150045Z 18013KT 30/18 A2985 RMK A01 T03010178  RH  048%=      5-min Rain = 0
KCL2 150046Z 18012KT 30/18 A2985 RMK A01 T03000178  RH  048%=      5-min Rain = 0
KCL2 150047Z 18011KT 30/18 A2985 RMK A01 T03000178  RH  048%=      5-min Rain = 0
KCL2 150048Z 18012KT 30/18 A2985 RMK A01 T03000178  RH  048%=      5-min Rain = 0
KCL2 150049Z 18013KT 30/18 A2984 RMK A01 T02990178  RH  048%=      5-min Rain = 0
KCL2 150050Z 18015KT 30/18 A2985 RMK A01 T02990178  RH  048%=      5-min Rain = 0
KCL2 150051Z 18012G17KT 30/18 A2985 RMK A01 T02990178  RH  048%=      5-min Rain = 0
KCL2 150052Z 18010KT 30/18 A2985 RMK A01 T02990179  RH  049%=      5-min Rain = 0
KCL2 150053Z 18012G19KT 30/18 A2985 RMK A01 T02990179  RH  049%=      5-min Rain = 0
KCL2 150054Z 17012KT 30/18 A2985 RMK A01 T02980178  RH  049%=      5-min Rain = 0
KCL2 150055Z 18011KT 30/18 A2985 RMK A01 T02980179  RH  049%=      5-min Rain = 0
KCL2 150056Z 18010KT 30/18 A2985 RMK A01 T02980180  RH  049%=      5-min Rain = 0
KCL2 150057Z 18011KT 30/18 A2985 RMK A01 T02970180  RH  049%=      5-min Rain = 0
KCL2 150058Z 18012KT 30/18 A2985 RMK A01 T02970179  RH  049%=      5-min Rain = 0
KCL2 150059Z 18009KT 30/18 A2985 RMK A01 T02960180  RH  050%=      5-min Rain = 0
KCL2 150100Z 18011KT 30/18 A2985 RMK A01 T02950179  RH  050%=      5-min Rain = 0
KCL2 150101Z 18011KT 29/18 A2985 RMK A01 T02940179  RH  050%=      5-min Rain = 0
KCL2 150102Z 18013KT 29/18 A2985 RMK A01 T02930179  RH  050%=      5-min Rain = 0
KCL2 150103Z 18012KT 29/18 A2985 RMK A01 T02930178  RH  050%=      5-min Rain = 0
KCL2 150104Z 18012KT 29/18 A2985 RMK A01 T02920178  RH  050%=      5-min Rain = 0
KCL2 150105Z 18011KT 29/18 A2985 RMK A01 T02920179  RH  050%=      5-min Rain = 0
KCL2 150106Z 18010KT 29/18 A2985 RMK A01 T02920179  RH  051%=      5-min Rain = 0
KCL2 150107Z 18012G17KT 29/18 A2985 RMK A01 T02910179  RH  051%=      5-min Rain = 0
KCL2 150108Z 18010KT 29/18 A2985 RMK A01 T02900179  RH  051%=      5-min Rain = 0
KCL2 150109Z 18011KT 29/18 A2985 RMK A01 T02900178  RH  051%=      5-min Rain = 0
KCL2 150110Z 18010G15KT 29/18 A2985 RMK A01 T02900177  RH  051%=      5-min Rain = 0
KCL2 150111Z 17011KT 29/18 A2985 RMK A01 T02900177  RH  051%=      5-min Rain = 0
KCL2 150112Z 18011KT 29/18 A2985 RMK A01 T02900178  RH  051%=      5-min Rain = 0
KCL2 150113Z 18011KT 29/18 A2985 RMK A01 T02900178  RH  051%=      5-min Rain = 0
KCL2 150114Z 18013G20KT 29/18 A2985 RMK A01 T02900177  RH  050%=      5-min Rain = 0
KCL2 150115Z 18012KT 29/18 A2985 RMK A01 T02900178  RH  051%=      5-min Rain = 0
KCL2 150116Z 18014KT 29/18 A2985 RMK A01 T02900178  RH  051%=      5-min Rain = 0
KCL2 150117Z 18012KT 29/18 A2985 RMK A01 T02890177  RH  051%=      5-min Rain = 0
KCL2 150118Z 18013G18KT 29/18 A2985 RMK A01 T02890176  RH  051%=      5-min Rain = 0
KCL2 150119Z 18012G17KT 29/18 A2985 RMK A01 T02890177  RH  051%=      5-min Rain = 0
KCL2 150120Z 18013KT 29/18 A2985 RMK A01 T02890176  RH  051%=      5-min Rain = 0
KCL2 150121Z 18011G17KT 29/18 A2985 RMK A01 T02890177  RH  051%=      5-min Rain = 0
KCL2 150122Z 18012KT 29/18 A2986 RMK A01 T02880176  RH  051%=      5-min Rain = 0
KCL2 150123Z 19012KT 29/18 A2986 RMK A01 T02880177  RH  051%=      5-min Rain = 0
KCL2 150124Z 18013KT 29/18 A2986 RMK A01 T02870176  RH  051%=      5-min Rain = 0
KCL2 150125Z 19012KT 29/18 A2986 RMK A01 T02870176  RH  051%=      5-min Rain = 0
KCL2 150126Z 18013KT 29/18 A2986 RMK A01 T02870176  RH  051%=      5-min Rain = 0
KCL2 150127Z 18012G18KT 29/18 A2986 RMK A01 T02870176  RH  051%=      5-min Rain = 0
KCL2 150128Z 18012KT 29/18 A2986 RMK A01 T02860176  RH  051%=      5-min Rain = 0
KCL2 150129Z 19013KT 29/18 A2986 RMK A01 T02860176  RH  051%=      5-min Rain = 0
KCL2 150130Z 18013KT 29/18 A2986 RMK A01 T02860176  RH  051%=      5-min Rain = 0
KCL2 150131Z 18011KT 29/18 A2986 RMK A01 T02860176  RH  052%=      5-min Rain = 0
KCL2 150132Z 18011KT 29/18 A2986 RMK A01 T02850176  RH  052%=      5-min Rain = 0
KCL2 150133Z 18012KT 29/18 A2986 RMK A01 T02860176  RH  051%=      5-min Rain = 0
KCL2 150134Z 18012G17KT 29/18 A2986 RMK A01 T02860176  RH  051%=      5-min Rain = 0
KCL2 150135Z 18012KT 29/18 A2985 RMK A01 T02850176  RH  052%=      5-min Rain = 0
KCL2 150136Z 18011KT 29/18 A2985 RMK A01 T02850176  RH  052%=      5-min Rain = 0
KCL2 150137Z 18011KT 28/18 A2986 RMK A01 T02840176  RH  052%=      5-min Rain = 0
KCL2 150138Z 18012KT 28/18 A2985 RMK A01 T02840176  RH  052%=      5-min Rain = 0
KCL2 150139Z 18014KT 28/18 A2985 RMK A01 T02840176  RH  052%=      5-min Rain = 0
KCL2 150140Z 18012G17KT 28/18 A2986 RMK A01 T02840176  RH  052%=      5-min Rain = 0
KCL2 150141Z 18011KT 28/18 A2986 RMK A01 T02830176  RH  052%=      5-min Rain = 0
KCL2 150142Z 18009KT 28/18 A2986 RMK A01 T02830177  RH  053%=      5-min Rain = 0
KCL2 150143Z 18012G17KT 28/18 A2986 RMK A01 T02810176  RH  053%=      5-min Rain = 0
KCL2 150144Z 18011KT 28/18 A2986 RMK A01 T02810176  RH  053%=      5-min Rain = 0
KCL2 150145Z 18009KT 28/18 A2986 RMK A01 T02810176  RH  053%=      5-min Rain = 0
KCL2 150146Z 18011KT 28/18 A2986 RMK A01 T02800177  RH  053%=      5-min Rain = 0
KCL2 150147Z 18010KT 28/18 A2986 RMK A01 T02790176  RH  053%=      5-min Rain = 0
KCL2 150148Z 18011KT 28/18 A2986 RMK A01 T02800177  RH  053%=      5-min Rain = 0
KCL2 150149Z 18009KT 28/18 A2986 RMK A01 T02790177  RH  054%=      5-min Rain = 0
KCL2 150150Z 18010KT 28/18 A2986 RMK A01 T02790177  RH  054%=      5-min Rain = 0
KCL2 150151Z 18012G18KT 28/18 A2986 RMK A01 T02780177  RH  054%=      5-min Rain = 0
KCL2 150152Z 18012KT 28/18 A2986 RMK A01 T02780176  RH  054%=      5-min Rain = 0
KCL2 150153Z 18010KT 28/18 A2986 RMK A01 T02780176  RH  054%=      5-min Rain = 0
KCL2 150154Z 18009KT 28/18 A2986 RMK A01 T02780177  RH  054%=      5-min Rain = 0
KCL2 150155Z 18010KT 28/18 A2986 RMK A01 T02770177  RH  054%=      5-min Rain = 0
KCL2 150156Z 18012KT 28/18 A2986 RMK A01 T02770176  RH  054%=      5-min Rain = 0
KCL2 150157Z 17012KT 28/18 A2986 RMK A01 T02780176  RH  054%=      5-min Rain = 0
KCL2 150158Z 18010KT 28/18 A2986 RMK A01 T02780176  RH  054%=      5-min Rain = 0
KCL2 150159Z 18011KT 28/18 A2986 RMK A01 T02780177  RH  054%=      5-min Rain = 0
KCL2 150200Z 18011KT 28/18 A2986 RMK A01 T02780177  RH  054%=      5-min Rain = 0
KCL2 150201Z 17010KT 28/18 A2986 RMK A01 T02780178  RH  054%=      5-min Rain = 0
KCL2 150202Z 18012KT 28/18 A2986 RMK A01 T02760177  RH  055%=      5-min Rain = 0
KCL2 150203Z 18009KT 28/18 A2986 RMK A01 T02760177  RH  055%=      5-min Rain = 0
KCL2 150204Z 17011KT 28/18 A2986 RMK A01 T02760177  RH  055%=      5-min Rain = 0
KCL2 150205Z 17011KT 28/18 A2986 RMK A01 T02760177  RH  055%=      5-min Rain = 0
KCL2 150206Z 18011KT 28/18 A2986 RMK A01 T02760177  RH  055%=      5-min Rain = 0
KCL2 150207Z 17009KT 28/18 A2986 RMK A01 T02750177  RH  055%=      5-min Rain = 0
KCL2 150208Z 18011KT 27/18 A2986 RMK A01 T02740177  RH  055%=      5-min Rain = 0
KCL2 150209Z 18010KT 27/18 A2986 RMK A01 T02740177  RH  055%=      5-min Rain = 0
KCL2 150210Z 18010KT 27/18 A2986 RMK A01 T02740178  RH  056%=      5-min Rain = 0
KCL2 150211Z 18010KT 27/18 A2986 RMK A01 T02730177  RH  056%=      5-min Rain = 0
KCL2 150212Z 18010KT 27/18 A2986 RMK A01 T02730177  RH  056%=      5-min Rain = 0
KCL2 150213Z 17010KT 27/18 A2986 RMK A01 T02730176  RH  056%=      5-min Rain = 0
KCL2 150214Z 18011KT 27/18 A2986 RMK A01 T02730177  RH  056%=      5-min Rain = 0
KCL2 150215Z 18013KT 27/18 A2986 RMK A01 T02730176  RH  056%=      5-min Rain = 0
KCL2 150216Z 17012G17KT 27/18 A2986 RMK A01 T02730176  RH  055%=      5-min Rain = 0
KCL2 150217Z 18009KT 27/18 A2986 RMK A01 T02730177  RH  055%=      5-min Rain = 0
KCL2 150218Z 18012KT 27/18 A2986 RMK A01 T02730177  RH  056%=      5-min Rain = 0
KCL2 150219Z 18011KT 27/18 A2986 RMK A01 T02720176  RH  056%=      5-min Rain = 0
KCL2 150220Z 17012KT 27/18 A2986 RMK A01 T02730177  RH  056%=      5-min Rain = 0
KCL2 150221Z 18012KT 27/18 A2986 RMK A01 T02720176  RH  056%=      5-min Rain = 0
KCL2 150222Z 17011KT 27/18 A2986 RMK A01 T02720177  RH  056%=      5-min Rain = 0
KCL2 150223Z 17011KT 27/18 A2986 RMK A01 T02720176  RH  056%=      5-min Rain = 0
KCL2 150224Z 17010KT 27/18 A2986 RMK A01 T02710177  RH  056%=      5-min Rain = 0
KCL2 150225Z 17011KT 27/18 A2986 RMK A01 T02700177  RH  057%=      5-min Rain = 0
KCL2 150226Z 18011KT 27/18 A2985 RMK A01 T02700176  RH  057%=      5-min Rain = 0
KCL2 150227Z 18011KT 27/18 A2986 RMK A01 T02700177  RH  057%=      5-min Rain = 0
KCL2 150228Z 18010KT 27/18 A2985 RMK A01 T02700177  RH  057%=      5-min Rain = 0
KCL2 150229Z 18012G17KT 27/18 A2985 RMK A01 T02690176  RH  057%=      5-min Rain = 0
KCL2 150230Z 17010KT 27/18 A2985 RMK A01 T02700176  RH  056%=      5-min Rain = 0
KCL2 150231Z 17012G17KT 27/18 A2985 RMK A01 T02690175  RH  056%=      5-min Rain = 0
KCL2 150232Z 17011G16KT 27/18 A2985 RMK A01 T02690175  RH  056%=      5-min Rain = 0
KCL2 150233Z 17011KT 27/18 A2985 RMK A01 T02690175  RH  056%=      5-min Rain = 0
KCL2 150234Z 18010G15KT 27/18 A2985 RMK A01 T02700176  RH  056%=      5-min Rain = 0
KCL2 150235Z 18010KT 27/18 A2985 RMK A01 T02690175  RH  057%=      5-min Rain = 0
KCL2 150236Z 18013KT 27/18 A2985 RMK A01 T02680175  RH  057%=      5-min Rain = 0
KCL2 150237Z 17012KT 27/17 A2985 RMK A01 T02680174  RH  056%=      5-min Rain = 0
KCL2 150238Z 18011KT 27/18 A2985 RMK A01 T02690175  RH  056%=      5-min Rain = 0
KCL2 150239Z 17011KT 27/18 A2985 RMK A01 T02690175  RH  056%=      5-min Rain = 0
KCL2 150240Z 17012KT 27/18 A2985 RMK A01 T02690175  RH  056%=      5-min Rain = 0
KCL2 150241Z 17011KT 27/18 A2985 RMK A01 T02680175  RH  056%=      5-min Rain = 0
KCL2 150242Z 17015KT 27/17 A2985 RMK A01 T02690174  RH  056%=      5-min Rain = 0
KCL2 150243Z 18012KT 27/17 A2985 RMK A01 T02690174  RH  056%=      5-min Rain = 0
KCL2 150244Z 18014KT 27/17 A2985 RMK A01 T02700174  RH  056%=      5-min Rain = 0
KCL2 150245Z 17012KT 27/17 A2985 RMK A01 T02700174  RH  056%=      5-min Rain = 0
KCL2 150246Z 18012G17KT 27/17 A2986 RMK A01 T02690174  RH  056%=      5-min Rain = 0
KCL2 150247Z 18012G17KT 27/17 A2986 RMK A01 T02690174  RH  056%=      5-min Rain = 0
KCL2 150248Z 18014KT 27/17 A2986 RMK A01 T02690174  RH  056%=      5-min Rain = 0
KCL2 150249Z 18013KT 27/17 A2986 RMK A01 T02690173  RH  056%=      5-min Rain = 0
KCL2 150250Z 18014KT 27/17 A2986 RMK A01 T02690173  RH  056%=      5-min Rain = 0
KCL2 150251Z 18014KT 27/17 A2986 RMK A01 T02690173  RH  055%=      5-min Rain = 0
KCL2 150252Z 18015KT 27/17 A2986 RMK A01 T02690172  RH  055%=      5-min Rain = 0
KCL2 150253Z 18015KT 27/17 A2986 RMK A01 T02700172  RH  055%=      5-min Rain = 0
KCL2 150254Z 18016KT 27/17 A2986 RMK A01 T02700172  RH  055%=      5-min Rain = 0
KCL2 150255Z 17014KT 27/17 A2986 RMK A01 T02710173  RH  055%=      5-min Rain = 0
KCL2 150256Z 18013KT 27/17 A2986 RMK A01 T02700172  RH  055%=      5-min Rain = 0
KCL2 150257Z 18013KT 27/17 A2986 RMK A01 T02700172  RH  055%=      5-min Rain = 0
KCL2 150258Z 18016G21KT 27/17 A2986 RMK A01 T02690172  RH  055%=      5-min Rain = 0
KCL2 150259Z 18013KT 27/17 A2986 RMK A01 T02690172  RH  055%=      5-min Rain = 0
KCL2 150300Z 17014G19KT 27/17 A2986 RMK A01 T02690172  RH  055%=      5-min Rain = 0
KCL2 150301Z 18011KT 27/17 A2986 RMK A01 T02690172  RH  055%=      5-min Rain = 0
KCL2 150302Z 17013KT 27/17 A2986 RMK A01 T02690173  RH  056%=      5-min Rain = 0
KCL2 150303Z 18013KT 27/17 A2986 RMK A01 T02680172  RH  056%=      5-min Rain = 0
KCL2 150304Z 18013KT 27/17 A2986 RMK A01 T02680172  RH  056%=      5-min Rain = 0
KCL2 150305Z 17012KT 27/17 A2986 RMK A01 T02680172  RH  056%=      5-min Rain = 0
KCL2 150306Z 17013KT 27/17 A2986 RMK A01 T02670172  RH  056%=      5-min Rain = 0
KCL2 150307Z 17014KT 27/17 A2986 RMK A01 T02670171  RH  056%=      5-min Rain = 0
KCL2 150308Z 18015KT 27/17 A2986 RMK A01 T02680171  RH  055%=      5-min Rain = 0
KCL2 150309Z 18015G20KT 27/17 A2986 RMK A01 T02680172  RH  056%=      5-min Rain = 0
KCL2 150310Z 18014KT 27/17 A2986 RMK A01 T02680171  RH  055%=      5-min Rain = 0
KCL2 150311Z 18014KT 27/17 A2986 RMK A01 T02680171  RH  055%=      5-min Rain = 0
KCL2 150312Z 18012KT 27/17 A2986 RMK A01 T02690171  RH  055%=      5-min Rain = 0
KCL2 150313Z 17014G19KT 27/17 A2986 RMK A01 T02690172  RH  055%=      5-min Rain = 0
KCL2 150314Z 18015KT 27/17 A2986 RMK A01 T02680171  RH  055%=      5-min Rain = 0
KCL2 150315Z 18011KT 27/17 A2986 RMK A01 T02690171  RH  055%=      5-min Rain = 0
KCL2 150316Z 18011KT 27/17 A2986 RMK A01 T02680172  RH  056%=      5-min Rain = 0
KCL2 150317Z 17017G22KT 27/17 A2986 RMK A01 T02670171  RH  056%=      5-min Rain = 0
KCL2 150318Z 18014KT 27/17 A2986 RMK A01 T02670170  RH  055%=      5-min Rain = 0
KCL2 150319Z 17016G21KT 27/17 A2986 RMK A01 T02680170  RH  055%=      5-min Rain = 0
KCL2 150320Z 17016G21KT 27/17 A2986 RMK A01 T02690170  RH  055%=      5-min Rain = 0
KCL2 150321Z 18014KT 27/17 A2986 RMK A01 T02690170  RH  055%=      5-min Rain = 0
KCL2 150322Z 18016KT 27/17 A2986 RMK A01 T02690170  RH  055%=      5-min Rain = 0
KCL2 150323Z 17016KT 27/17 A2986 RMK A01 T02690170  RH  055%=      5-min Rain = 0
KCL2 150324Z 17014KT 27/17 A2986 RMK A01 T02690170  RH  055%=      5-min Rain = 0
KCL2 150325Z 17016G22KT 27/17 A2986 RMK A01 T02690170  RH  055%=      5-min Rain = 0
KCL2 150326Z 17014G19KT 27/17 A2986 RMK A01 T02690169  RH  054%=      5-min Rain = 0
KCL2 150327Z 17013KT 27/17 A2986 RMK A01 T02690170  RH  054%=      5-min Rain = 0
KCL2 150328Z 17012KT 27/17 A2986 RMK A01 T02680170  RH  055%=      5-min Rain = 0
KCL2 150329Z 17015KT 27/17 A2986 RMK A01 T02680170  RH  055%=      5-min Rain = 0
KCL2 150330Z 18014KT 27/17 A2986 RMK A01 T02680169  RH  055%=      5-min Rain = 0
KCL2 150331Z 17013KT 27/17 A2986 RMK A01 T02680169  RH  055%=      5-min Rain = 0
KCL2 150332Z 18012KT 27/17 A2986 RMK A01 T02670170  RH  055%=      5-min Rain = 0
KCL2 150333Z 18013G18KT 27/17 A2986 RMK A01 T02670170  RH  055%=      5-min Rain = 0
KCL2 150334Z 18014KT 27/17 A2986 RMK A01 T02660170  RH  055%=      5-min Rain = 0
KCL2 150335Z 18012KT 27/17 A2986 RMK A01 T02660170  RH  055%=      5-min Rain = 0
KCL2 150336Z 18014G19KT 27/17 A2986 RMK A01 T02660169  RH  055%=      5-min Rain = 0
KCL2 150337Z 18012KT 27/17 A2986 RMK A01 T02660169  RH  055%=      5-min Rain = 0
KCL2 150338Z 18014KT 27/17 A2986 RMK A01 T02660169  RH  055%=      5-min Rain = 0
KCL2 150339Z 17013KT 27/17 A2986 RMK A01 T02660169  RH  055%=      5-min Rain = 0
KCL2 150340Z 17015KT 27/17 A2986 RMK A01 T02650169  RH  055%=      5-min Rain = 0
KCL2 150341Z 17014G21KT 27/17 A2986 RMK A01 T02650169  RH  055%=      5-min Rain = 0
KCL2 150342Z 17013G20KT 27/17 A2986 RMK A01 T02650169  RH  055%=      5-min Rain = 0
KCL2 150343Z 18013KT 27/17 A2986 RMK A01 T02650169  RH  056%=      5-min Rain = 0
KCL2 150344Z 18014G19KT 27/17 A2986 RMK A01 T02650169  RH  056%=      5-min Rain = 0
KCL2 150345Z 17014KT 27/17 A2986 RMK A01 T02650168  RH  055%=      5-min Rain = 0
KCL2 150346Z 18014KT 27/17 A2986 RMK A01 T02650169  RH  056%=      5-min Rain = 0
KCL2 150347Z 18012KT 27/17 A2986 RMK A01 T02650169  RH  056%=      5-min Rain = 0
KCL2 150348Z 18013KT 26/17 A2986 RMK A01 T02640169  RH  056%=      5-min Rain = 0
KCL2 150349Z 17011KT 26/17 A2987 RMK A01 T02640169  RH  056%=      5-min Rain = 0
KCL2 150350Z 17013KT 26/17 A2987 RMK A01 T02640169  RH  056%=      5-min Rain = 0
KCL2 150351Z 17015KT 26/17 A2987 RMK A01 T02630169  RH  056%=      5-min Rain = 0
KCL2 150352Z 18013KT 26/17 A2987 RMK A01 T02630169  RH  056%=      5-min Rain = 0
KCL2 150353Z 18013KT 26/17 A2987 RMK A01 T02640169  RH  056%=      5-min Rain = 0
KCL2 150354Z 18012KT 26/17 A2987 RMK A01 T02630169  RH  056%=      5-min Rain = 0
KCL2 150355Z 18013KT 26/17 A2987 RMK A01 T02630169  RH  056%=      5-min Rain = 0
KCL2 150356Z 18015KT 26/17 A2987 RMK A01 T02630169  RH  056%=      5-min Rain = 0
KCL2 150357Z 18012KT 26/17 A2987 RMK A01 T02630169  RH  056%=      5-min Rain = 0
KCL2 150358Z 18014KT 26/17 A2987 RMK A01 T02630169  RH  056%=      5-min Rain = 0
KCL2 150359Z 18011KT 26/17 A2987 RMK A01 T02620169  RH  056%=      5-min Rain = 0
KCL2 150400Z 18013KT 26/17 A2987 RMK A01 T02620169  RH  057%=      5-min Rain = 0
KCL2 150401Z 18014G20KT 26/17 A2987 RMK A01 T02610168  RH  057%=      5-min Rain = 0
KCL2 150402Z 18012KT 26/17 A2987 RMK A01 T02620169  RH  057%=      5-min Rain = 0
KCL2 150403Z 18015KT 26/17 A2987 RMK A01 T02610169  RH  057%=      5-min Rain = 0
KCL2 150404Z 18011KT 26/17 A2987 RMK A01 T02610169  RH  057%=      5-min Rain = 0
KCL2 150405Z 18013KT 26/17 A2987 RMK A01 T02610169  RH  057%=      5-min Rain = 0
KCL2 150406Z 17016KT 26/17 A2987 RMK A01 T02600169  RH  057%=      5-min Rain = 0
KCL2 150407Z 18014KT 26/17 A2987 RMK A01 T02600168  RH  057%=      5-min Rain = 0
KCL2 150408Z 17015G20KT 26/17 A2987 RMK A01 T02610168  RH  057%=      5-min Rain = 0
KCL2 150409Z 18013KT 26/17 A2987 RMK A01 T02600169  RH  057%=      5-min Rain = 0
KCL2 150410Z 18016G22KT 26/17 A2986 RMK A01 T02600169  RH  057%=      5-min Rain = 0
KCL2 150411Z 17015KT 26/17 A2986 RMK A01 T02600168  RH  057%=      5-min Rain = 0
KCL2 150412Z 17016KT 26/17 A2986 RMK A01 T02600168  RH  057%=      5-min Rain = 0
KCL2 150413Z 18015KT 26/17 A2986 RMK A01 T02600168  RH  057%=      5-min Rain = 0
KCL2 150414Z 18020KT 26/17 A2986 RMK A01 T02600168  RH  057%=      5-min Rain = 0
KCL2 150415Z 17016G21KT 26/17 A2986 RMK A01 T02610167  RH  056%=      5-min Rain = 0
KCL2 150416Z 18015KT 26/17 A2986 RMK A01 T02610168  RH  056%=      5-min Rain = 0
KCL2 150417Z 18015KT 26/17 A2986 RMK A01 T02610168  RH  057%=      5-min Rain = 0
KCL2 150418Z 18013G19KT 26/17 A2986 RMK A01 T02600168  RH  057%=      5-min Rain = 0
KCL2 150419Z 18014KT 26/17 A2986 RMK A01 T02600168  RH  057%=      5-min Rain = 0
KCL2 150420Z 18016KT 26/17 A2986 RMK A01 T02590168  RH  057%=      5-min Rain = 0
KCL2 150421Z 18015G21KT 26/17 A2986 RMK A01 T02590168  RH  057%=      5-min Rain = 0
KCL2 150422Z 18012KT 26/17 A2987 RMK A01 T02590168  RH  057%=      5-min Rain = 0
KCL2 150423Z 18015KT 26/17 A2987 RMK A01 T02590168  RH  057%=      5-min Rain = 0
KCL2 150424Z 18016G22KT 26/17 A2987 RMK A01 T02590167  RH  057%=      5-min Rain = 0
KCL2 150425Z 18015G20KT 26/17 A2987 RMK A01 T02590167  RH  057%=      5-min Rain = 0
KCL2 150426Z 18014G19KT 26/17 A2987 RMK A01 T02590168  RH  057%=      5-min Rain = 0
KCL2 150427Z 18014G19KT 26/17 A2987 RMK A01 T02590168  RH  057%=      5-min Rain = 0
KCL2 150428Z 18015KT 26/17 A2987 RMK A01 T02590168  RH  057%=      5-min Rain = 0
KCL2 150429Z 18015KT 26/17 A2986 RMK A01 T02580167  RH  057%=      5-min Rain = 0
KCL2 150430Z 18016G21KT 26/17 A2987 RMK A01 T02590168  RH  057%=      5-min Rain = 0
KCL2 150431Z 19015G20KT 26/17 A2986 RMK A01 T02580167  RH  057%=      5-min Rain = 0
KCL2 150432Z 18013KT 26/17 A2986 RMK A01 T02580167  RH  057%=      5-min Rain = 0
KCL2 150433Z 18015G21KT 26/17 A2986 RMK A01 T02580168  RH  057%=      5-min Rain = 0
KCL2 150434Z 18018KT 26/17 A2986 RMK A01 T02580167  RH  057%=      5-min Rain = 0
KCL2 150435Z 18019KT 26/17 A2986 RMK A01 T02590167  RH  057%=      5-min Rain = 0
KCL2 150436Z 18014G19KT 26/17 A2986 RMK A01 T02590167  RH  057%=      5-min Rain = 0
KCL2 150437Z 18017KT 26/17 A2986 RMK A01 T02590167  RH  057%=      5-min Rain = 0
KCL2 150438Z 19013KT 26/17 A2986 RMK A01 T02590168  RH  057%=      5-min Rain = 0
KCL2 150439Z 18014KT 26/17 A2986 RMK A01 T02580168  RH  058%=      5-min Rain = 0
KCL2 150440Z 18016KT 26/17 A2986 RMK A01 T02580168  RH  058%=      5-min Rain = 0
KCL2 150441Z 18014G19KT 26/17 A2986 RMK A01 T02570168  RH  058%=      5-min Rain = 0
KCL2 150442Z 19016KT 26/17 A2986 RMK A01 T02570168  RH  058%=      5-min Rain = 0
KCL2 150443Z 18015KT 26/17 A2986 RMK A01 T02570168  RH  058%=      5-min Rain = 0
KCL2 150444Z 18014KT 26/17 A2986 RMK A01 T02570167  RH  058%=      5-min Rain = 0
KCL2 150445Z 19014KT 26/17 A2986 RMK A01 T02570167  RH  058%=      5-min Rain = 0
KCL2 150446Z 18016KT 26/17 A2986 RMK A01 T02570168  RH  058%=      5-min Rain = 0
KCL2 150447Z 18014KT 26/17 A2986 RMK A01 T02570168  RH  058%=      5-min Rain = 0
KCL2 150448Z 18013G18KT 26/17 A2986 RMK A01 T02570168  RH  058%=      5-min Rain = 0
KCL2 150449Z 18011KT 26/17 A2986 RMK A01 T02560168  RH  058%=      5-min Rain = 0
KCL2 150450Z 18012KT 26/17 A2986 RMK A01 T02550168  RH  058%=      5-min Rain = 0
KCL2 150451Z 19012KT 26/17 A2987 RMK A01 T02550168  RH  058%=      5-min Rain = 0
KCL2 150452Z 19010G15KT 26/17 A2987 RMK A01 T02550168  RH  059%=      5-min Rain = 0
KCL2 150453Z 18012KT 25/17 A2987 RMK A01 T02540168  RH  059%=      5-min Rain = 0
KCL2 150454Z 18014KT 25/17 A2987 RMK A01 T02540168  RH  059%=      5-min Rain = 0
KCL2 150455Z 18013KT 25/17 A2987 RMK A01 T02540168  RH  059%=      5-min Rain = 0
KCL2 150456Z 18013KT 25/17 A2987 RMK A01 T02540168  RH  059%=      5-min Rain = 0
KCL2 150457Z 18010KT 26/17 A2987 RMK A01 T02550169  RH  059%=      5-min Rain = 0
KCL2 150458Z 18011KT 25/17 A2987 RMK A01 T02540169  RH  059%=      5-min Rain = 0
KCL2 150459Z 19012KT 25/17 A2987 RMK A01 T02540170  RH  059%=      5-min Rain = 0

Page generated in 0.1222 seconds.